| State | Missouri | Latest | Low (200 cfs) | |
| River | Turnback Creek | Rating | Observed | Estimated |
| Updated | 2026-05-06 2:30 (36 minutes ago) | Flood - The river is flooding. Obstacles can be treacherous or deadly. The river should be avoided at this stage for casual trips and definitely for the inexperienced. Trips should be attempted only with protective gear and equipment.Flood | (none) | 1121 |
| Discharge | 200 cfs (median: 241 cfs) | High - The river is high and potentially dangerous, especially for the young and / or inexperienced. Normal stream obstacles are sometimes difficult to navigate. Extended distances can be attempted, but canoe travel may not be advisable.High | (none) | 512 |
| Height | 5.51 feet | Good - Conditions are ideal for a canoe or kayak. Boats typically will drag on fewer than one-quarter of riffles, if at all, and portages are unnecessary or rare. Normal float lengths can be attempted without a problem.Good | (none) | 236 |
| Trend | Steady (falling over 24 hours) | Low - River is low but can still be floated. Some riffles are okay but most come with significant dragging and might need a portage. Float lengths should be reduced to accommodate low flow, dragging, and portages.Low | (none) | 156 |
| USGS | USGS Site ( Duck Duck Go Maps) | Poor - River is too low to float comfortably. Most or all riffles will drag or must be portaged and some obstacles (such as slick shelf rock) cause undue problems. Avoid the river at this stage for casual paddling trips.Poor | (none) | 52 |
A total of 1 rows are displayed.
| Miles | 4.5 |
| Trips | 1 |
| People | 1 |
| Dates | 1 |
| Years | 1 |
| Months | 1 |
| Rows | 1 |
| Sources | 1 |
BLG - Bluegill
CCF - Channel Catfish
CP - Chain Pickerel
FWD - Freshwater Drum
GSF - Green Sunfish
KSB - Kentucky Spotted Bass
LMB - Largemouth Bass
LSF - Longear Sunfish
RB - Rock Bass / Goggle Eye
RSF - Redear Sunfish
RT - Rainbow Trout
SMB - Smallmouth Bass
WB - White Bass
WF - Whitefish
WL - WalleyeThe classic River Trips application is still available for use. It is updated with the new system using a data retrofit. It is no longer maintained. The original River Trips application is no longer updated (as of 1 Dec 2016) but can be checked for errors or for the condition of the data before it was converted to the new system.
| Observation | Height | Discharge | Maximum Discharge | Minimum Discharge | Mean Discharge | P05 | P10 | P20 | P25 | P50 (Median) | P75 | P80 | P90 | P95 |
|---|---|---|---|---|---|---|---|---|---|---|---|---|---|---|
| 2026-05-06 02:30 | 5.51 | 200 | 4730 (2022) | 29 (1981) | 465 | 67 | 115 | 160 | 169 | 241 | 510 | 686 | 891 | 1470 |
| 2026-05-06 01:30 | 5.51 | 200 | 4730 (2022) | 29 (1981) | 465 | 67 | 115 | 160 | 169 | 241 | 510 | 686 | 891 | 1470 |
| 2026-05-06 00:30 | 5.51 | 200 | 4730 (2022) | 29 (1981) | 465 | 67 | 115 | 160 | 169 | 241 | 510 | 686 | 891 | 1470 |
| 2026-05-05 23:30 | 5.51 | 200 | 4730 (2022) | 29 (1981) | 465 | 67 | 115 | 160 | 169 | 241 | 510 | 686 | 891 | 1470 |
| 2026-05-05 22:30 | 5.51 | 200 | 15600 (2022) | 31 (1981) | 718 | 71 | 120 | 150 | 172 | 250 | 539 | 685 | 1010 | 2030 |
| 2026-05-05 21:30 | 5.54 | 207 | 15600 (2022) | 31 (1981) | 718 | 71 | 120 | 150 | 172 | 250 | 539 | 685 | 1010 | 2030 |
| 2026-05-05 20:30 | 5.53 | 205 | 15600 (2022) | 31 (1981) | 718 | 71 | 120 | 150 | 172 | 250 | 539 | 685 | 1010 | 2030 |
| 2026-05-05 19:30 | 5.51 | 200 | 15600 (2022) | 31 (1981) | 718 | 71 | 120 | 150 | 172 | 250 | 539 | 685 | 1010 | 2030 |
| 2026-05-05 18:30 | 5.50 | 197 | 15600 (2022) | 31 (1981) | 718 | 71 | 120 | 150 | 172 | 250 | 539 | 685 | 1010 | 2030 |
| 2026-05-05 17:30 | 5.52 | 202 | 15600 (2022) | 31 (1981) | 718 | 71 | 120 | 150 | 172 | 250 | 539 | 685 | 1010 | 2030 |
| 2026-05-05 16:30 | 5.53 | 205 | 15600 (2022) | 31 (1981) | 718 | 71 | 120 | 150 | 172 | 250 | 539 | 685 | 1010 | 2030 |
| 2026-05-05 15:30 | 5.50 | 197 | 15600 (2022) | 31 (1981) | 718 | 71 | 120 | 150 | 172 | 250 | 539 | 685 | 1010 | 2030 |
| 2026-05-05 14:30 | 5.48 | 192 | 15600 (2022) | 31 (1981) | 718 | 71 | 120 | 150 | 172 | 250 | 539 | 685 | 1010 | 2030 |
| 2026-05-05 13:30 | 5.54 | 207 | 15600 (2022) | 31 (1981) | 718 | 71 | 120 | 150 | 172 | 250 | 539 | 685 | 1010 | 2030 |
| 2026-05-05 12:30 | 5.50 | 197 | 15600 (2022) | 31 (1981) | 718 | 71 | 120 | 150 | 172 | 250 | 539 | 685 | 1010 | 2030 |
| 2026-05-05 11:30 | 5.52 | 202 | 15600 (2022) | 31 (1981) | 718 | 71 | 120 | 150 | 172 | 250 | 539 | 685 | 1010 | 2030 |
| 2026-05-05 10:30 | 5.53 | 205 | 15600 (2022) | 31 (1981) | 718 | 71 | 120 | 150 | 172 | 250 | 539 | 685 | 1010 | 2030 |
| 2026-05-05 09:30 | 5.52 | 202 | 15600 (2022) | 31 (1981) | 718 | 71 | 120 | 150 | 172 | 250 | 539 | 685 | 1010 | 2030 |
| 2026-05-05 08:30 | 5.53 | 205 | 15600 (2022) | 31 (1981) | 718 | 71 | 120 | 150 | 172 | 250 | 539 | 685 | 1010 | 2030 |
| 2026-05-05 07:30 | 5.53 | 205 | 15600 (2022) | 31 (1981) | 718 | 71 | 120 | 150 | 172 | 250 | 539 | 685 | 1010 | 2030 |
| 2026-05-05 06:30 | 5.53 | 205 | 15600 (2022) | 31 (1981) | 718 | 71 | 120 | 150 | 172 | 250 | 539 | 685 | 1010 | 2030 |
| 2026-05-05 05:30 | 5.53 | 205 | 15600 (2022) | 31 (1981) | 718 | 71 | 120 | 150 | 172 | 250 | 539 | 685 | 1010 | 2030 |
| 2026-05-05 04:30 | 5.54 | 207 | 15600 (2022) | 31 (1981) | 718 | 71 | 120 | 150 | 172 | 250 | 539 | 685 | 1010 | 2030 |
| 2026-05-05 03:30 | 5.54 | 207 | 15600 (2022) | 31 (1981) | 718 | 71 | 120 | 150 | 172 | 250 | 539 | 685 | 1010 | 2030 |
| 2026-05-05 02:30 | 5.55 | 210 | 15600 (2022) | 31 (1981) | 718 | 71 | 120 | 150 | 172 | 250 | 539 | 685 | 1010 | 2030 |
| 2026-05-05 01:30 | 5.53 | 205 | 15600 (2022) | 31 (1981) | 718 | 71 | 120 | 150 | 172 | 250 | 539 | 685 | 1010 | 2030 |
| 2026-05-05 00:30 | 5.53 | 205 | 15600 (2022) | 31 (1981) | 718 | 71 | 120 | 150 | 172 | 250 | 539 | 685 | 1010 | 2030 |
| 2026-05-04 23:30 | 5.54 | 207 | 15600 (2022) | 31 (1981) | 718 | 71 | 120 | 150 | 172 | 250 | 539 | 685 | 1010 | 2030 |
| 2026-05-04 22:30 | 5.56 | 212 | 2970 (1999) | 31 (1981) | 508 | 75 | 125 | 155 | 170 | 259 | 610 | 838 | 1220 | 1700 |
| 2026-05-04 21:30 | 5.55 | 210 | 2970 (1999) | 31 (1981) | 508 | 75 | 125 | 155 | 170 | 259 | 610 | 838 | 1220 | 1700 |
| 2026-05-04 20:30 | 5.55 | 210 | 2970 (1999) | 31 (1981) | 508 | 75 | 125 | 155 | 170 | 259 | 610 | 838 | 1220 | 1700 |
| 2026-05-04 19:30 | 5.58 | 217 | 2970 (1999) | 31 (1981) | 508 | 75 | 125 | 155 | 170 | 259 | 610 | 838 | 1220 | 1700 |
| 2026-05-04 18:30 | 5.57 | 215 | 2970 (1999) | 31 (1981) | 508 | 75 | 125 | 155 | 170 | 259 | 610 | 838 | 1220 | 1700 |
| 2026-05-04 17:30 | 5.56 | 212 | 2970 (1999) | 31 (1981) | 508 | 75 | 125 | 155 | 170 | 259 | 610 | 838 | 1220 | 1700 |
| 2026-05-04 16:30 | 5.57 | 215 | 2970 (1999) | 31 (1981) | 508 | 75 | 125 | 155 | 170 | 259 | 610 | 838 | 1220 | 1700 |
| 2026-05-04 15:30 | 5.60 | 223 | 2970 (1999) | 31 (1981) | 508 | 75 | 125 | 155 | 170 | 259 | 610 | 838 | 1220 | 1700 |
| 2026-05-04 14:30 | 5.58 | 217 | 2970 (1999) | 31 (1981) | 508 | 75 | 125 | 155 | 170 | 259 | 610 | 838 | 1220 | 1700 |
| 2026-05-04 13:30 | 5.60 | 223 | 2970 (1999) | 31 (1981) | 508 | 75 | 125 | 155 | 170 | 259 | 610 | 838 | 1220 | 1700 |
| 2026-05-04 12:30 | 5.60 | 223 | 2970 (1999) | 31 (1981) | 508 | 75 | 125 | 155 | 170 | 259 | 610 | 838 | 1220 | 1700 |
| 2026-05-04 11:30 | 5.58 | 217 | 2970 (1999) | 31 (1981) | 508 | 75 | 125 | 155 | 170 | 259 | 610 | 838 | 1220 | 1700 |
| 2026-05-04 10:30 | 5.63 | 230 | 2970 (1999) | 31 (1981) | 508 | 75 | 125 | 155 | 170 | 259 | 610 | 838 | 1220 | 1700 |
| 2026-05-04 09:30 | 5.59 | 220 | 2970 (1999) | 31 (1981) | 508 | 75 | 125 | 155 | 170 | 259 | 610 | 838 | 1220 | 1700 |
| 2026-05-04 08:30 | 5.60 | 223 | 2970 (1999) | 31 (1981) | 508 | 75 | 125 | 155 | 170 | 259 | 610 | 838 | 1220 | 1700 |
| 2026-05-04 07:30 | 5.59 | 220 | 2970 (1999) | 31 (1981) | 508 | 75 | 125 | 155 | 170 | 259 | 610 | 838 | 1220 | 1700 |
| 2026-05-04 06:30 | 5.61 | 225 | 2970 (1999) | 31 (1981) | 508 | 75 | 125 | 155 | 170 | 259 | 610 | 838 | 1220 | 1700 |
| 2026-05-04 05:30 | 5.60 | 223 | 2970 (1999) | 31 (1981) | 508 | 75 | 125 | 155 | 170 | 259 | 610 | 838 | 1220 | 1700 |
| 2026-05-04 04:30 | 5.60 | 223 | 2970 (1999) | 31 (1981) | 508 | 75 | 125 | 155 | 170 | 259 | 610 | 838 | 1220 | 1700 |
| 2026-05-04 03:30 | 5.62 | 228 | 2970 (1999) | 31 (1981) | 508 | 75 | 125 | 155 | 170 | 259 | 610 | 838 | 1220 | 1700 |
| 2026-05-04 02:30 | 5.61 | 225 | 2970 (1999) | 31 (1981) | 508 | 75 | 125 | 155 | 170 | 259 | 610 | 838 | 1220 | 1700 |
| 2026-05-04 01:30 | 5.61 | 225 | 2970 (1999) | 31 (1981) | 508 | 75 | 125 | 155 | 170 | 259 | 610 | 838 | 1220 | 1700 |
| 2026-05-04 00:30 | 5.60 | 223 | 2970 (1999) | 31 (1981) | 508 | 75 | 125 | 155 | 170 | 259 | 610 | 838 | 1220 | 1700 |
| 2026-05-03 23:30 | 5.64 | 233 | 2970 (1999) | 31 (1981) | 508 | 75 | 125 | 155 | 170 | 259 | 610 | 838 | 1220 | 1700 |
| 2026-05-03 22:30 | 5.63 | 230 | 3160 (2017) | 31 (1981) | 466 | 79 | 129 | 159 | 164 | 287 | 597 | 671 | 1100 | 1320 |
| 2026-05-03 21:30 | 5.63 | 230 | 3160 (2017) | 31 (1981) | 466 | 79 | 129 | 159 | 164 | 287 | 597 | 671 | 1100 | 1320 |
| 2026-05-03 20:30 | 5.62 | 228 | 3160 (2017) | 31 (1981) | 466 | 79 | 129 | 159 | 164 | 287 | 597 | 671 | 1100 | 1320 |
| 2026-05-03 19:30 | 5.64 | 233 | 3160 (2017) | 31 (1981) | 466 | 79 | 129 | 159 | 164 | 287 | 597 | 671 | 1100 | 1320 |
| 2026-05-03 18:30 | 5.65 | 236 | 3160 (2017) | 31 (1981) | 466 | 79 | 129 | 159 | 164 | 287 | 597 | 671 | 1100 | 1320 |
| 2026-05-03 17:30 | 5.66 | 239 | 3160 (2017) | 31 (1981) | 466 | 79 | 129 | 159 | 164 | 287 | 597 | 671 | 1100 | 1320 |
| 2026-05-03 16:30 | 5.66 | 239 | 3160 (2017) | 31 (1981) | 466 | 79 | 129 | 159 | 164 | 287 | 597 | 671 | 1100 | 1320 |
| 2026-05-03 15:30 | 5.67 | 241 | 3160 (2017) | 31 (1981) | 466 | 79 | 129 | 159 | 164 | 287 | 597 | 671 | 1100 | 1320 |
| 2026-05-03 14:30 | 5.68 | 244 | 3160 (2017) | 31 (1981) | 466 | 79 | 129 | 159 | 164 | 287 | 597 | 671 | 1100 | 1320 |
| 2026-05-03 13:30 | 5.66 | 239 | 3160 (2017) | 31 (1981) | 466 | 79 | 129 | 159 | 164 | 287 | 597 | 671 | 1100 | 1320 |
| 2026-05-03 12:30 | 5.67 | 241 | 3160 (2017) | 31 (1981) | 466 | 79 | 129 | 159 | 164 | 287 | 597 | 671 | 1100 | 1320 |
| 2026-05-03 11:30 | 5.68 | 244 | 3160 (2017) | 31 (1981) | 466 | 79 | 129 | 159 | 164 | 287 | 597 | 671 | 1100 | 1320 |
| 2026-05-03 10:30 | 5.68 | 244 | 3160 (2017) | 31 (1981) | 466 | 79 | 129 | 159 | 164 | 287 | 597 | 671 | 1100 | 1320 |
| 2026-05-03 09:30 | 5.67 | 241 | 3160 (2017) | 31 (1981) | 466 | 79 | 129 | 159 | 164 | 287 | 597 | 671 | 1100 | 1320 |
| 2026-05-03 08:30 | 5.69 | 247 | 3160 (2017) | 31 (1981) | 466 | 79 | 129 | 159 | 164 | 287 | 597 | 671 | 1100 | 1320 |
| 2026-05-03 07:30 | 5.69 | 247 | 3160 (2017) | 31 (1981) | 466 | 79 | 129 | 159 | 164 | 287 | 597 | 671 | 1100 | 1320 |
| 2026-05-03 06:30 | 5.68 | 244 | 3160 (2017) | 31 (1981) | 466 | 79 | 129 | 159 | 164 | 287 | 597 | 671 | 1100 | 1320 |
| 2026-05-03 05:30 | 5.70 | 250 | 3160 (2017) | 31 (1981) | 466 | 79 | 129 | 159 | 164 | 287 | 597 | 671 | 1100 | 1320 |
| 2026-05-03 04:30 | 5.69 | 247 | 3160 (2017) | 31 (1981) | 466 | 79 | 129 | 159 | 164 | 287 | 597 | 671 | 1100 | 1320 |
| 2026-05-03 03:30 | 5.68 | 244 | 3160 (2017) | 31 (1981) | 466 | 79 | 129 | 159 | 164 | 287 | 597 | 671 | 1100 | 1320 |
| 2026-05-03 02:30 | 5.70 | 250 | 3160 (2017) | 31 (1981) | 466 | 79 | 129 | 159 | 164 | 287 | 597 | 671 | 1100 | 1320 |
| 2026-05-03 01:30 | 5.71 | 252 | 3160 (2017) | 31 (1981) | 466 | 79 | 129 | 159 | 164 | 287 | 597 | 671 | 1100 | 1320 |
| 2026-05-03 00:30 | 5.72 | 255 | 3160 (2017) | 31 (1981) | 466 | 79 | 129 | 159 | 164 | 287 | 597 | 671 | 1100 | 1320 |
| 2026-05-02 23:30 | 5.70 | 250 | 3160 (2017) | 31 (1981) | 466 | 79 | 129 | 159 | 164 | 287 | 597 | 671 | 1100 | 1320 |
| 2026-05-02 22:30 | 5.72 | 255 | 2250 (1983) | 33 (1981) | 485 | 87 | 130 | 163 | 170 | 302 | 600 | 716 | 1480 | 1700 |
| 2026-05-02 21:30 | 5.72 | 255 | 2250 (1983) | 33 (1981) | 485 | 87 | 130 | 163 | 170 | 302 | 600 | 716 | 1480 | 1700 |
| 2026-05-02 20:30 | 5.73 | 258 | 2250 (1983) | 33 (1981) | 485 | 87 | 130 | 163 | 170 | 302 | 600 | 716 | 1480 | 1700 |
| 2026-05-02 19:30 | 5.72 | 255 | 2250 (1983) | 33 (1981) | 485 | 87 | 130 | 163 | 170 | 302 | 600 | 716 | 1480 | 1700 |
| 2026-05-02 18:30 | 5.72 | 255 | 2250 (1983) | 33 (1981) | 485 | 87 | 130 | 163 | 170 | 302 | 600 | 716 | 1480 | 1700 |
| 2026-05-02 17:30 | 5.74 | 261 | 2250 (1983) | 33 (1981) | 485 | 87 | 130 | 163 | 170 | 302 | 600 | 716 | 1480 | 1700 |
| 2026-05-02 16:30 | 5.73 | 258 | 2250 (1983) | 33 (1981) | 485 | 87 | 130 | 163 | 170 | 302 | 600 | 716 | 1480 | 1700 |
| 2026-05-02 15:30 | 5.75 | 264 | 2250 (1983) | 33 (1981) | 485 | 87 | 130 | 163 | 170 | 302 | 600 | 716 | 1480 | 1700 |
| 2026-05-02 14:30 | 5.75 | 264 | 2250 (1983) | 33 (1981) | 485 | 87 | 130 | 163 | 170 | 302 | 600 | 716 | 1480 | 1700 |
| 2026-05-02 13:30 | 5.77 | 270 | 2250 (1983) | 33 (1981) | 485 | 87 | 130 | 163 | 170 | 302 | 600 | 716 | 1480 | 1700 |
| 2026-05-02 12:30 | 5.77 | 270 | 2250 (1983) | 33 (1981) | 485 | 87 | 130 | 163 | 170 | 302 | 600 | 716 | 1480 | 1700 |
| 2026-05-02 11:30 | 5.78 | 273 | 2250 (1983) | 33 (1981) | 485 | 87 | 130 | 163 | 170 | 302 | 600 | 716 | 1480 | 1700 |
| 2026-05-02 10:30 | 5.77 | 270 | 2250 (1983) | 33 (1981) | 485 | 87 | 130 | 163 | 170 | 302 | 600 | 716 | 1480 | 1700 |
| 2026-05-02 09:30 | 5.77 | 270 | 2250 (1983) | 33 (1981) | 485 | 87 | 130 | 163 | 170 | 302 | 600 | 716 | 1480 | 1700 |
| 2026-05-02 08:30 | 5.77 | 270 | 2250 (1983) | 33 (1981) | 485 | 87 | 130 | 163 | 170 | 302 | 600 | 716 | 1480 | 1700 |
| 2026-05-02 07:30 | 5.79 | 275 | 2250 (1983) | 33 (1981) | 485 | 87 | 130 | 163 | 170 | 302 | 600 | 716 | 1480 | 1700 |
| 2026-05-02 06:30 | 5.76 | 267 | 2250 (1983) | 33 (1981) | 485 | 87 | 130 | 163 | 170 | 302 | 600 | 716 | 1480 | 1700 |
| 2026-05-02 05:30 | 5.78 | 273 | 2250 (1983) | 33 (1981) | 485 | 87 | 130 | 163 | 170 | 302 | 600 | 716 | 1480 | 1700 |
| 2026-05-02 04:30 | 5.80 | 278 | 2250 (1983) | 33 (1981) | 485 | 87 | 130 | 163 | 170 | 302 | 600 | 716 | 1480 | 1700 |
| 2026-05-02 03:30 | 5.79 | 275 | 2250 (1983) | 33 (1981) | 485 | 87 | 130 | 163 | 170 | 302 | 600 | 716 | 1480 | 1700 |
| 2026-05-02 02:30 | 5.80 | 278 | 2250 (1983) | 33 (1981) | 485 | 87 | 130 | 163 | 170 | 302 | 600 | 716 | 1480 | 1700 |
| 2026-05-02 01:30 | 5.80 | 278 | 2250 (1983) | 33 (1981) | 485 | 87 | 130 | 163 | 170 | 302 | 600 | 716 | 1480 | 1700 |
| 2026-05-02 00:30 | 5.81 | 281 | 2250 (1983) | 33 (1981) | 485 | 87 | 130 | 163 | 170 | 302 | 600 | 716 | 1480 | 1700 |
| 2026-05-01 23:30 | 5.80 | 278 | 2250 (1983) | 33 (1981) | 485 | 87 | 130 | 163 | 170 | 302 | 600 | 716 | 1480 | 1700 |
| 2026-05-01 22:30 | 5.82 | 284 | 5150 (2019) | 36 (1981) | 680 | 80 | 133 | 170 | 190 | 290 | 678 | 818 | 1480 | 3810 |
| 2026-05-01 20:30 | 5.82 | 284 | 5150 (2019) | 36 (1981) | 680 | 80 | 133 | 170 | 190 | 290 | 678 | 818 | 1480 | 3810 |
| 2026-05-01 19:30 | 5.82 | 284 | 5150 (2019) | 36 (1981) | 680 | 80 | 133 | 170 | 190 | 290 | 678 | 818 | 1480 | 3810 |
| 2026-05-01 18:30 | 5.83 | 287 | 5150 (2019) | 36 (1981) | 680 | 80 | 133 | 170 | 190 | 290 | 678 | 818 | 1480 | 3810 |
| 2026-05-01 17:30 | 5.83 | 287 | 5150 (2019) | 36 (1981) | 680 | 80 | 133 | 170 | 190 | 290 | 678 | 818 | 1480 | 3810 |
| 2026-05-01 16:30 | 5.86 | 296 | 5150 (2019) | 36 (1981) | 680 | 80 | 133 | 170 | 190 | 290 | 678 | 818 | 1480 | 3810 |
| 2026-05-01 15:30 | 5.84 | 290 | 5150 (2019) | 36 (1981) | 680 | 80 | 133 | 170 | 190 | 290 | 678 | 818 | 1480 | 3810 |
| 2026-05-01 14:30 | 5.87 | 300 | 5150 (2019) | 36 (1981) | 680 | 80 | 133 | 170 | 190 | 290 | 678 | 818 | 1480 | 3810 |
| 2026-05-01 13:30 | 5.88 | 303 | 5150 (2019) | 36 (1981) | 680 | 80 | 133 | 170 | 190 | 290 | 678 | 818 | 1480 | 3810 |
| 2026-05-01 12:30 | 5.88 | 303 | 5150 (2019) | 36 (1981) | 680 | 80 | 133 | 170 | 190 | 290 | 678 | 818 | 1480 | 3810 |
| 2026-05-01 11:30 | 5.86 | 296 | 5150 (2019) | 36 (1981) | 680 | 80 | 133 | 170 | 190 | 290 | 678 | 818 | 1480 | 3810 |
| 2026-05-01 10:30 | 5.88 | 303 | 5150 (2019) | 36 (1981) | 680 | 80 | 133 | 170 | 190 | 290 | 678 | 818 | 1480 | 3810 |
| 2026-05-01 09:30 | 5.87 | 300 | 5150 (2019) | 36 (1981) | 680 | 80 | 133 | 170 | 190 | 290 | 678 | 818 | 1480 | 3810 |
| 2026-05-01 08:30 | 5.87 | 300 | 5150 (2019) | 36 (1981) | 680 | 80 | 133 | 170 | 190 | 290 | 678 | 818 | 1480 | 3810 |
| 2026-05-01 06:30 | 5.89 | 306 | 5150 (2019) | 36 (1981) | 680 | 80 | 133 | 170 | 190 | 290 | 678 | 818 | 1480 | 3810 |
| 2026-05-01 05:30 | 5.88 | 303 | 5150 (2019) | 36 (1981) | 680 | 80 | 133 | 170 | 190 | 290 | 678 | 818 | 1480 | 3810 |
| 2026-05-01 04:30 | 5.90 | 309 | 5150 (2019) | 36 (1981) | 680 | 80 | 133 | 170 | 190 | 290 | 678 | 818 | 1480 | 3810 |
| 2026-05-01 03:30 | 5.87 | 300 | 5150 (2019) | 36 (1981) | 680 | 80 | 133 | 170 | 190 | 290 | 678 | 818 | 1480 | 3810 |
| 2026-05-01 02:30 | 5.90 | 309 | 5150 (2019) | 36 (1981) | 680 | 80 | 133 | 170 | 190 | 290 | 678 | 818 | 1480 | 3810 |
| 2026-05-01 01:30 | 5.90 | 309 | 5150 (2019) | 36 (1981) | 680 | 80 | 133 | 170 | 190 | 290 | 678 | 818 | 1480 | 3810 |
| 2026-05-01 00:30 | 5.90 | 309 | 5150 (2019) | 36 (1981) | 680 | 80 | 133 | 170 | 190 | 290 | 678 | 818 | 1480 | 3810 |
| 2026-04-30 23:30 | 5.91 | 312 | 5150 (2019) | 36 (1981) | 680 | 80 | 133 | 170 | 190 | 290 | 678 | 818 | 1480 | 3810 |
| 2026-04-30 22:30 | 5.91 | 312 | 12100 (2017) | 39 (1981) | 741 | 60 | 137 | 173 | 193 | 290 | 611 | 785 | 1330 | 3340 |
| 2026-04-30 21:30 | 5.92 | 315 | 12100 (2017) | 39 (1981) | 741 | 60 | 137 | 173 | 193 | 290 | 611 | 785 | 1330 | 3340 |
| 2026-04-30 20:30 | 5.93 | 318 | 12100 (2017) | 39 (1981) | 741 | 60 | 137 | 173 | 193 | 290 | 611 | 785 | 1330 | 3340 |
| 2026-04-30 19:30 | 5.93 | 318 | 12100 (2017) | 39 (1981) | 741 | 60 | 137 | 173 | 193 | 290 | 611 | 785 | 1330 | 3340 |
| 2026-04-30 18:30 | 5.92 | 315 | 12100 (2017) | 39 (1981) | 741 | 60 | 137 | 173 | 193 | 290 | 611 | 785 | 1330 | 3340 |
| 2026-04-30 17:30 | 5.94 | 322 | 12100 (2017) | 39 (1981) | 741 | 60 | 137 | 173 | 193 | 290 | 611 | 785 | 1330 | 3340 |
| 2026-04-30 16:30 | 5.96 | 328 | 12100 (2017) | 39 (1981) | 741 | 60 | 137 | 173 | 193 | 290 | 611 | 785 | 1330 | 3340 |
| 2026-04-30 15:30 | 5.98 | 334 | 12100 (2017) | 39 (1981) | 741 | 60 | 137 | 173 | 193 | 290 | 611 | 785 | 1330 | 3340 |
| 2026-04-30 14:30 | 5.99 | 338 | 12100 (2017) | 39 (1981) | 741 | 60 | 137 | 173 | 193 | 290 | 611 | 785 | 1330 | 3340 |
| 2026-04-30 13:30 | 5.98 | 334 | 12100 (2017) | 39 (1981) | 741 | 60 | 137 | 173 | 193 | 290 | 611 | 785 | 1330 | 3340 |
| 2026-04-30 12:30 | 6.00 | 341 | 12100 (2017) | 39 (1981) | 741 | 60 | 137 | 173 | 193 | 290 | 611 | 785 | 1330 | 3340 |
| 2026-04-30 11:30 | 5.99 | 338 | 12100 (2017) | 39 (1981) | 741 | 60 | 137 | 173 | 193 | 290 | 611 | 785 | 1330 | 3340 |
| 2026-04-30 10:30 | 5.99 | 338 | 12100 (2017) | 39 (1981) | 741 | 60 | 137 | 173 | 193 | 290 | 611 | 785 | 1330 | 3340 |
| 2026-04-30 09:30 | 6.00 | 341 | 12100 (2017) | 39 (1981) | 741 | 60 | 137 | 173 | 193 | 290 | 611 | 785 | 1330 | 3340 |
| 2026-04-30 08:30 | 6.01 | 344 | 12100 (2017) | 39 (1981) | 741 | 60 | 137 | 173 | 193 | 290 | 611 | 785 | 1330 | 3340 |
| 2026-04-30 07:30 | 6.01 | 344 | 12100 (2017) | 39 (1981) | 741 | 60 | 137 | 173 | 193 | 290 | 611 | 785 | 1330 | 3340 |
| 2026-04-30 06:30 | 6.01 | 344 | 12100 (2017) | 39 (1981) | 741 | 60 | 137 | 173 | 193 | 290 | 611 | 785 | 1330 | 3340 |
| 2026-04-30 05:30 | 6.01 | 344 | 12100 (2017) | 39 (1981) | 741 | 60 | 137 | 173 | 193 | 290 | 611 | 785 | 1330 | 3340 |
| 2026-04-30 04:30 | 6.03 | 351 | 12100 (2017) | 39 (1981) | 741 | 60 | 137 | 173 | 193 | 290 | 611 | 785 | 1330 | 3340 |
| 2026-04-30 03:30 | 6.02 | 348 | 12100 (2017) | 39 (1981) | 741 | 60 | 137 | 173 | 193 | 290 | 611 | 785 | 1330 | 3340 |
| 2026-04-30 02:30 | 6.04 | 354 | 12100 (2017) | 39 (1981) | 741 | 60 | 137 | 173 | 193 | 290 | 611 | 785 | 1330 | 3340 |
| 2026-04-30 01:30 | 6.03 | 351 | 12100 (2017) | 39 (1981) | 741 | 60 | 137 | 173 | 193 | 290 | 611 | 785 | 1330 | 3340 |
| 2026-04-30 00:30 | 6.06 | 361 | 12100 (2017) | 39 (1981) | 741 | 60 | 137 | 173 | 193 | 290 | 611 | 785 | 1330 | 3340 |
| 2026-04-29 22:30 | 6.08 | 368 | 9510 (2017) | 38 (1981) | 636 | 62 | 112 | 170 | 181 | 247 | 498 | 666 | 1380 | 2220 |
| 2026-04-29 21:30 | 6.08 | 368 | 9510 (2017) | 38 (1981) | 636 | 62 | 112 | 170 | 181 | 247 | 498 | 666 | 1380 | 2220 |
| 2026-04-29 20:30 | 6.10 | 375 | 9510 (2017) | 38 (1981) | 636 | 62 | 112 | 170 | 181 | 247 | 498 | 666 | 1380 | 2220 |
| 2026-04-29 19:30 | 6.12 | 382 | 9510 (2017) | 38 (1981) | 636 | 62 | 112 | 170 | 181 | 247 | 498 | 666 | 1380 | 2220 |
| 2026-04-29 18:30 | 6.12 | 382 | 9510 (2017) | 38 (1981) | 636 | 62 | 112 | 170 | 181 | 247 | 498 | 666 | 1380 | 2220 |
| 2026-04-29 17:30 | 6.14 | 389 | 9510 (2017) | 38 (1981) | 636 | 62 | 112 | 170 | 181 | 247 | 498 | 666 | 1380 | 2220 |
| 2026-04-29 16:30 | 6.16 | 396 | 9510 (2017) | 38 (1981) | 636 | 62 | 112 | 170 | 181 | 247 | 498 | 666 | 1380 | 2220 |
| 2026-04-29 15:30 | 6.15 | 393 | 9510 (2017) | 38 (1981) | 636 | 62 | 112 | 170 | 181 | 247 | 498 | 666 | 1380 | 2220 |
| 2026-04-29 14:30 | 6.18 | 403 | 9510 (2017) | 38 (1981) | 636 | 62 | 112 | 170 | 181 | 247 | 498 | 666 | 1380 | 2220 |
| 2026-04-29 13:30 | 6.19 | 407 | 9510 (2017) | 38 (1981) | 636 | 62 | 112 | 170 | 181 | 247 | 498 | 666 | 1380 | 2220 |
| 2026-04-29 12:30 | 6.24 | 425 | 9510 (2017) | 38 (1981) | 636 | 62 | 112 | 170 | 181 | 247 | 498 | 666 | 1380 | 2220 |
| 2026-04-29 11:30 | 6.26 | 433 | 9510 (2017) | 38 (1981) | 636 | 62 | 112 | 170 | 181 | 247 | 498 | 666 | 1380 | 2220 |
| 2026-04-29 10:30 | 6.30 | 448 | 9510 (2017) | 38 (1981) | 636 | 62 | 112 | 170 | 181 | 247 | 498 | 666 | 1380 | 2220 |
| 2026-04-29 09:30 | 6.32 | 456 | 9510 (2017) | 38 (1981) | 636 | 62 | 112 | 170 | 181 | 247 | 498 | 666 | 1380 | 2220 |
| 2026-04-29 08:30 | 6.35 | 467 | 9510 (2017) | 38 (1981) | 636 | 62 | 112 | 170 | 181 | 247 | 498 | 666 | 1380 | 2220 |
| 2026-04-29 07:30 | 6.36 | 471 | 9510 (2017) | 38 (1981) | 636 | 62 | 112 | 170 | 181 | 247 | 498 | 666 | 1380 | 2220 |
| 2026-04-29 06:30 | 6.37 | 475 | 9510 (2017) | 38 (1981) | 636 | 62 | 112 | 170 | 181 | 247 | 498 | 666 | 1380 | 2220 |
| 2026-04-29 05:30 | 6.30 | 448 | 9510 (2017) | 38 (1981) | 636 | 62 | 112 | 170 | 181 | 247 | 498 | 666 | 1380 | 2220 |
| 2026-04-29 04:30 | 6.21 | 414 | 9510 (2017) | 38 (1981) | 636 | 62 | 112 | 170 | 181 | 247 | 498 | 666 | 1380 | 2220 |
| 2026-04-29 03:30 | 6.08 | 368 | 9510 (2017) | 38 (1981) | 636 | 62 | 112 | 170 | 181 | 247 | 498 | 666 | 1380 | 2220 |
| 2026-04-29 02:30 | 6.01 | 344 | 9510 (2017) | 38 (1981) | 636 | 62 | 112 | 170 | 181 | 247 | 498 | 666 | 1380 | 2220 |
| 2026-04-29 01:30 | 5.97 | 331 | 9510 (2017) | 38 (1981) | 636 | 62 | 112 | 170 | 181 | 247 | 498 | 666 | 1380 | 2220 |
| 2026-04-29 00:30 | 5.96 | 328 | 9510 (2017) | 38 (1981) | 636 | 62 | 112 | 170 | 181 | 247 | 498 | 666 | 1380 | 2220 |
| 2026-04-28 23:30 | 5.90 | 309 | 9510 (2017) | 38 (1981) | 636 | 62 | 112 | 170 | 181 | 247 | 498 | 666 | 1380 | 2220 |
| 2026-04-28 22:30 | 5.85 | 293 | 2050 (1996) | 29 (2006) | 432 | 55 | 114 | 167 | 182 | 275 | 482 | 632 | 1030 | 1580 |
| 2026-04-28 21:30 | 5.84 | 290 | 2050 (1996) | 29 (2006) | 432 | 55 | 114 | 167 | 182 | 275 | 482 | 632 | 1030 | 1580 |
| 2026-04-28 20:30 | 5.84 | 290 | 2050 (1996) | 29 (2006) | 432 | 55 | 114 | 167 | 182 | 275 | 482 | 632 | 1030 | 1580 |
| 2026-04-28 19:30 | 5.84 | 290 | 2050 (1996) | 29 (2006) | 432 | 55 | 114 | 167 | 182 | 275 | 482 | 632 | 1030 | 1580 |
| 2026-04-28 18:30 | 5.84 | 290 | 2050 (1996) | 29 (2006) | 432 | 55 | 114 | 167 | 182 | 275 | 482 | 632 | 1030 | 1580 |
| 2026-04-28 17:30 | 5.82 | 284 | 2050 (1996) | 29 (2006) | 432 | 55 | 114 | 167 | 182 | 275 | 482 | 632 | 1030 | 1580 |
| 2026-04-28 16:30 | 5.81 | 281 | 2050 (1996) | 29 (2006) | 432 | 55 | 114 | 167 | 182 | 275 | 482 | 632 | 1030 | 1580 |
| 2026-04-28 15:30 | 5.79 | 275 | 2050 (1996) | 29 (2006) | 432 | 55 | 114 | 167 | 182 | 275 | 482 | 632 | 1030 | 1580 |
| 2026-04-28 14:30 | 5.75 | 264 | 2050 (1996) | 29 (2006) | 432 | 55 | 114 | 167 | 182 | 275 | 482 | 632 | 1030 | 1580 |
| 2026-04-28 13:30 | 5.69 | 247 | 2050 (1996) | 29 (2006) | 432 | 55 | 114 | 167 | 182 | 275 | 482 | 632 | 1030 | 1580 |
| 2026-04-28 12:30 | 5.73 | 258 | 2050 (1996) | 29 (2006) | 432 | 55 | 114 | 167 | 182 | 275 | 482 | 632 | 1030 | 1580 |
| 2026-04-28 11:30 | 5.72 | 255 | 2050 (1996) | 29 (2006) | 432 | 55 | 114 | 167 | 182 | 275 | 482 | 632 | 1030 | 1580 |
| 2026-04-28 10:30 | 5.74 | 261 | 2050 (1996) | 29 (2006) | 432 | 55 | 114 | 167 | 182 | 275 | 482 | 632 | 1030 | 1580 |
| 2026-04-28 09:30 | 5.71 | 252 | 2050 (1996) | 29 (2006) | 432 | 55 | 114 | 167 | 182 | 275 | 482 | 632 | 1030 | 1580 |
| 2026-04-28 08:30 | 5.71 | 252 | 2050 (1996) | 29 (2006) | 432 | 55 | 114 | 167 | 182 | 275 | 482 | 632 | 1030 | 1580 |
| 2026-04-28 07:30 | 5.72 | 255 | 2050 (1996) | 29 (2006) | 432 | 55 | 114 | 167 | 182 | 275 | 482 | 632 | 1030 | 1580 |
| 2026-04-28 06:30 | 5.72 | 255 | 2050 (1996) | 29 (2006) | 432 | 55 | 114 | 167 | 182 | 275 | 482 | 632 | 1030 | 1580 |
| 2026-04-28 05:30 | 5.75 | 264 | 2050 (1996) | 29 (2006) | 432 | 55 | 114 | 167 | 182 | 275 | 482 | 632 | 1030 | 1580 |
| 2026-04-28 04:30 | 5.74 | 261 | 2050 (1996) | 29 (2006) | 432 | 55 | 114 | 167 | 182 | 275 | 482 | 632 | 1030 | 1580 |
| 2026-04-28 03:30 | 5.73 | 258 | 2050 (1996) | 29 (2006) | 432 | 55 | 114 | 167 | 182 | 275 | 482 | 632 | 1030 | 1580 |
| 2026-04-28 02:30 | 5.75 | 264 | 2050 (1996) | 29 (2006) | 432 | 55 | 114 | 167 | 182 | 275 | 482 | 632 | 1030 | 1580 |
| 2026-04-28 01:30 | 5.75 | 264 | 2050 (1996) | 29 (2006) | 432 | 55 | 114 | 167 | 182 | 275 | 482 | 632 | 1030 | 1580 |
| 2026-04-28 00:30 | 5.76 | 267 | 2050 (1996) | 29 (2006) | 432 | 55 | 114 | 167 | 182 | 275 | 482 | 632 | 1030 | 1580 |
| 2026-04-27 23:30 | 5.78 | 273 | 2050 (1996) | 29 (2006) | 432 | 55 | 114 | 167 | 182 | 275 | 482 | 632 | 1030 | 1580 |
| 2026-04-27 22:30 | 5.77 | 270 | 2410 (2011) | 28 (2006) | 451 | 58 | 119 | 172 | 185 | 273 | 506 | 592 | 1080 | 1780 |
| 2026-04-27 21:30 | 5.78 | 273 | 2410 (2011) | 28 (2006) | 451 | 58 | 119 | 172 | 185 | 273 | 506 | 592 | 1080 | 1780 |
| 2026-04-27 20:30 | 5.78 | 273 | 2410 (2011) | 28 (2006) | 451 | 58 | 119 | 172 | 185 | 273 | 506 | 592 | 1080 | 1780 |
| 2026-04-27 19:30 | 5.76 | 267 | 2410 (2011) | 28 (2006) | 451 | 58 | 119 | 172 | 185 | 273 | 506 | 592 | 1080 | 1780 |
| 2026-04-27 18:30 | 5.80 | 278 | 2410 (2011) | 28 (2006) | 451 | 58 | 119 | 172 | 185 | 273 | 506 | 592 | 1080 | 1780 |
| 2026-04-27 17:30 | 5.80 | 278 | 2410 (2011) | 28 (2006) | 451 | 58 | 119 | 172 | 185 | 273 | 506 | 592 | 1080 | 1780 |
| 2026-04-27 16:30 | 5.81 | 281 | 2410 (2011) | 28 (2006) | 451 | 58 | 119 | 172 | 185 | 273 | 506 | 592 | 1080 | 1780 |
| 2026-04-27 15:30 | 5.81 | 281 | 2410 (2011) | 28 (2006) | 451 | 58 | 119 | 172 | 185 | 273 | 506 | 592 | 1080 | 1780 |
| 2026-04-27 14:30 | 5.81 | 281 | 2410 (2011) | 28 (2006) | 451 | 58 | 119 | 172 | 185 | 273 | 506 | 592 | 1080 | 1780 |
| 2026-04-27 13:30 | 5.82 | 284 | 2410 (2011) | 28 (2006) | 451 | 58 | 119 | 172 | 185 | 273 | 506 | 592 | 1080 | 1780 |
| 2026-04-27 12:30 | 5.84 | 290 | 2410 (2011) | 28 (2006) | 451 | 58 | 119 | 172 | 185 | 273 | 506 | 592 | 1080 | 1780 |
| 2026-04-27 11:30 | 5.80 | 278 | 2410 (2011) | 28 (2006) | 451 | 58 | 119 | 172 | 185 | 273 | 506 | 592 | 1080 | 1780 |
| 2026-04-27 10:30 | 5.82 | 284 | 2410 (2011) | 28 (2006) | 451 | 58 | 119 | 172 | 185 | 273 | 506 | 592 | 1080 | 1780 |
| 2026-04-27 09:30 | 5.83 | 287 | 2410 (2011) | 28 (2006) | 451 | 58 | 119 | 172 | 185 | 273 | 506 | 592 | 1080 | 1780 |
| 2026-04-27 08:30 | 5.84 | 290 | 2410 (2011) | 28 (2006) | 451 | 58 | 119 | 172 | 185 | 273 | 506 | 592 | 1080 | 1780 |
| 2026-04-27 07:30 | 5.83 | 287 | 2410 (2011) | 28 (2006) | 451 | 58 | 119 | 172 | 185 | 273 | 506 | 592 | 1080 | 1780 |
| 2026-04-27 06:30 | 5.81 | 281 | 2410 (2011) | 28 (2006) | 451 | 58 | 119 | 172 | 185 | 273 | 506 | 592 | 1080 | 1780 |
| 2026-04-27 05:30 | 5.84 | 290 | 2410 (2011) | 28 (2006) | 451 | 58 | 119 | 172 | 185 | 273 | 506 | 592 | 1080 | 1780 |
| 2026-04-27 04:30 | 5.85 | 293 | 2410 (2011) | 28 (2006) | 451 | 58 | 119 | 172 | 185 | 273 | 506 | 592 | 1080 | 1780 |
| 2026-04-27 03:30 | 5.86 | 296 | 2410 (2011) | 28 (2006) | 451 | 58 | 119 | 172 | 185 | 273 | 506 | 592 | 1080 | 1780 |
| 2026-04-27 02:30 | 5.85 | 293 | 2410 (2011) | 28 (2006) | 451 | 58 | 119 | 172 | 185 | 273 | 506 | 592 | 1080 | 1780 |
| 2026-04-27 01:30 | 5.86 | 296 | 2410 (2011) | 28 (2006) | 451 | 58 | 119 | 172 | 185 | 273 | 506 | 592 | 1080 | 1780 |
| 2026-04-27 00:30 | 5.87 | 300 | 2410 (2011) | 28 (2006) | 451 | 58 | 119 | 172 | 185 | 273 | 506 | 592 | 1080 | 1780 |
| 2026-04-26 23:30 | 5.85 | 293 | 2410 (2011) | 28 (2006) | 451 | 58 | 119 | 172 | 185 | 273 | 506 | 592 | 1080 | 1780 |
| 2026-04-26 22:30 | 5.87 | 300 | 7890 (2011) | 30 (2006) | 545 | 61 | 107 | 174 | 186 | 274 | 516 | 616 | 988 | 1850 |
| 2026-04-26 21:30 | 5.88 | 303 | 7890 (2011) | 30 (2006) | 545 | 61 | 107 | 174 | 186 | 274 | 516 | 616 | 988 | 1850 |
| 2026-04-26 20:30 | 5.88 | 303 | 7890 (2011) | 30 (2006) | 545 | 61 | 107 | 174 | 186 | 274 | 516 | 616 | 988 | 1850 |
| 2026-04-26 19:30 | 5.87 | 300 | 7890 (2011) | 30 (2006) | 545 | 61 | 107 | 174 | 186 | 274 | 516 | 616 | 988 | 1850 |
| 2026-04-26 18:30 | 5.89 | 306 | 7890 (2011) | 30 (2006) | 545 | 61 | 107 | 174 | 186 | 274 | 516 | 616 | 988 | 1850 |
| 2026-04-26 17:30 | 5.89 | 306 | 7890 (2011) | 30 (2006) | 545 | 61 | 107 | 174 | 186 | 274 | 516 | 616 | 988 | 1850 |
| 2026-04-26 16:30 | 5.90 | 309 | 7890 (2011) | 30 (2006) | 545 | 61 | 107 | 174 | 186 | 274 | 516 | 616 | 988 | 1850 |
| 2026-04-26 15:30 | 5.92 | 315 | 7890 (2011) | 30 (2006) | 545 | 61 | 107 | 174 | 186 | 274 | 516 | 616 | 988 | 1850 |
| 2026-04-26 14:30 | 5.92 | 315 | 7890 (2011) | 30 (2006) | 545 | 61 | 107 | 174 | 186 | 274 | 516 | 616 | 988 | 1850 |
| 2026-04-26 13:30 | 5.91 | 312 | 7890 (2011) | 30 (2006) | 545 | 61 | 107 | 174 | 186 | 274 | 516 | 616 | 988 | 1850 |
| 2026-04-26 12:30 | 5.92 | 315 | 7890 (2011) | 30 (2006) | 545 | 61 | 107 | 174 | 186 | 274 | 516 | 616 | 988 | 1850 |
| 2026-04-26 11:30 | 5.93 | 318 | 7890 (2011) | 30 (2006) | 545 | 61 | 107 | 174 | 186 | 274 | 516 | 616 | 988 | 1850 |
| 2026-04-26 10:30 | 5.93 | 318 | 7890 (2011) | 30 (2006) | 545 | 61 | 107 | 174 | 186 | 274 | 516 | 616 | 988 | 1850 |
| 2026-04-26 09:30 | 5.94 | 322 | 7890 (2011) | 30 (2006) | 545 | 61 | 107 | 174 | 186 | 274 | 516 | 616 | 988 | 1850 |
| 2026-04-26 08:30 | 5.93 | 318 | 7890 (2011) | 30 (2006) | 545 | 61 | 107 | 174 | 186 | 274 | 516 | 616 | 988 | 1850 |
| 2026-04-26 07:30 | 5.92 | 315 | 7890 (2011) | 30 (2006) | 545 | 61 | 107 | 174 | 186 | 274 | 516 | 616 | 988 | 1850 |
| 2026-04-26 06:30 | 5.94 | 322 | 7890 (2011) | 30 (2006) | 545 | 61 | 107 | 174 | 186 | 274 | 516 | 616 | 988 | 1850 |
| 2026-04-26 05:30 | 5.95 | 325 | 7890 (2011) | 30 (2006) | 545 | 61 | 107 | 174 | 186 | 274 | 516 | 616 | 988 | 1850 |
| 2026-04-26 04:30 | 5.95 | 325 | 7890 (2011) | 30 (2006) | 545 | 61 | 107 | 174 | 186 | 274 | 516 | 616 | 988 | 1850 |
| 2026-04-26 03:30 | 5.96 | 328 | 7890 (2011) | 30 (2006) | 545 | 61 | 107 | 174 | 186 | 274 | 516 | 616 | 988 | 1850 |
| 2026-04-26 02:30 | 5.99 | 338 | 7890 (2011) | 30 (2006) | 545 | 61 | 107 | 174 | 186 | 274 | 516 | 616 | 988 | 1850 |
| 2026-04-26 01:30 | 5.96 | 328 | 7890 (2011) | 30 (2006) | 545 | 61 | 107 | 174 | 186 | 274 | 516 | 616 | 988 | 1850 |
| 2026-04-26 00:30 | 5.98 | 334 | 7890 (2011) | 30 (2006) | 545 | 61 | 107 | 174 | 186 | 274 | 516 | 616 | 988 | 1850 |
| 2026-04-25 23:30 | 6.00 | 341 | 7890 (2011) | 30 (2006) | 545 | 61 | 107 | 174 | 186 | 274 | 516 | 616 | 988 | 1850 |
| 2026-04-25 22:30 | 6.00 | 341 | 4470 (2011) | 29 (2006) | 537 | 63 | 99 | 170 | 188 | 303 | 570 | 668 | 1290 | 2400 |
| 2026-04-25 21:30 | 6.01 | 344 | 4470 (2011) | 29 (2006) | 537 | 63 | 99 | 170 | 188 | 303 | 570 | 668 | 1290 | 2400 |
| 2026-04-25 20:30 | 6.03 | 351 | 4470 (2011) | 29 (2006) | 537 | 63 | 99 | 170 | 188 | 303 | 570 | 668 | 1290 | 2400 |
| 2026-04-25 19:30 | 6.01 | 344 | 4470 (2011) | 29 (2006) | 537 | 63 | 99 | 170 | 188 | 303 | 570 | 668 | 1290 | 2400 |
| 2026-04-25 18:30 | 6.02 | 348 | 4470 (2011) | 29 (2006) | 537 | 63 | 99 | 170 | 188 | 303 | 570 | 668 | 1290 | 2400 |
| 2026-04-25 17:30 | 6.06 | 361 | 4470 (2011) | 29 (2006) | 537 | 63 | 99 | 170 | 188 | 303 | 570 | 668 | 1290 | 2400 |
| 2026-04-25 16:30 | 6.06 | 361 | 4470 (2011) | 29 (2006) | 537 | 63 | 99 | 170 | 188 | 303 | 570 | 668 | 1290 | 2400 |
| 2026-04-25 15:30 | 6.07 | 365 | 4470 (2011) | 29 (2006) | 537 | 63 | 99 | 170 | 188 | 303 | 570 | 668 | 1290 | 2400 |
| 2026-04-25 14:30 | 6.06 | 361 | 4470 (2011) | 29 (2006) | 537 | 63 | 99 | 170 | 188 | 303 | 570 | 668 | 1290 | 2400 |
| 2026-04-25 13:30 | 6.08 | 368 | 4470 (2011) | 29 (2006) | 537 | 63 | 99 | 170 | 188 | 303 | 570 | 668 | 1290 | 2400 |
| 2026-04-25 12:30 | 6.09 | 371 | 4470 (2011) | 29 (2006) | 537 | 63 | 99 | 170 | 188 | 303 | 570 | 668 | 1290 | 2400 |
| 2026-04-25 11:30 | 6.10 | 375 | 4470 (2011) | 29 (2006) | 537 | 63 | 99 | 170 | 188 | 303 | 570 | 668 | 1290 | 2400 |
| 2026-04-25 10:30 | 6.10 | 375 | 4470 (2011) | 29 (2006) | 537 | 63 | 99 | 170 | 188 | 303 | 570 | 668 | 1290 | 2400 |
| 2026-04-25 09:30 | 6.10 | 375 | 4470 (2011) | 29 (2006) | 537 | 63 | 99 | 170 | 188 | 303 | 570 | 668 | 1290 | 2400 |
| 2026-04-25 08:30 | 6.12 | 382 | 4470 (2011) | 29 (2006) | 537 | 63 | 99 | 170 | 188 | 303 | 570 | 668 | 1290 | 2400 |
| 2026-04-25 07:30 | 6.13 | 385 | 4470 (2011) | 29 (2006) | 537 | 63 | 99 | 170 | 188 | 303 | 570 | 668 | 1290 | 2400 |
| 2026-04-25 06:30 | 6.14 | 389 | 4470 (2011) | 29 (2006) | 537 | 63 | 99 | 170 | 188 | 303 | 570 | 668 | 1290 | 2400 |
| 2026-04-25 05:30 | 6.16 | 396 | 4470 (2011) | 29 (2006) | 537 | 63 | 99 | 170 | 188 | 303 | 570 | 668 | 1290 | 2400 |
| 2026-04-25 04:30 | 6.16 | 396 | 4470 (2011) | 29 (2006) | 537 | 63 | 99 | 170 | 188 | 303 | 570 | 668 | 1290 | 2400 |
| 2026-04-25 03:30 | 6.19 | 407 | 4470 (2011) | 29 (2006) | 537 | 63 | 99 | 170 | 188 | 303 | 570 | 668 | 1290 | 2400 |
| 2026-04-25 02:30 | 6.21 | 414 | 4470 (2011) | 29 (2006) | 537 | 63 | 99 | 170 | 188 | 303 | 570 | 668 | 1290 | 2400 |
| 2026-04-25 01:30 | 6.24 | 425 | 4470 (2011) | 29 (2006) | 537 | 63 | 99 | 170 | 188 | 303 | 570 | 668 | 1290 | 2400 |
| 2026-04-25 00:30 | 6.27 | 437 | 4470 (2011) | 29 (2006) | 537 | 63 | 99 | 170 | 188 | 303 | 570 | 668 | 1290 | 2400 |
| 2026-04-24 23:30 | 6.28 | 440 | 4470 (2011) | 29 (2006) | 537 | 63 | 99 | 170 | 188 | 303 | 570 | 668 | 1290 | 2400 |
| 2026-04-24 22:30 | 6.32 | 456 | 2300 (1983) | 25 (2006) | 434 | 67 | 94 | 172 | 189 | 279 | 501 | 572 | 850 | 1910 |
| 2026-04-24 21:30 | 6.34 | 463 | 2300 (1983) | 25 (2006) | 434 | 67 | 94 | 172 | 189 | 279 | 501 | 572 | 850 | 1910 |
| 2026-04-24 20:30 | 6.32 | 456 | 2300 (1983) | 25 (2006) | 434 | 67 | 94 | 172 | 189 | 279 | 501 | 572 | 850 | 1910 |
| 2026-04-24 19:30 | 6.28 | 440 | 2300 (1983) | 25 (2006) | 434 | 67 | 94 | 172 | 189 | 279 | 501 | 572 | 850 | 1910 |
| 2026-04-24 18:30 | 6.29 | 444 | 2300 (1983) | 25 (2006) | 434 | 67 | 94 | 172 | 189 | 279 | 501 | 572 | 850 | 1910 |
| 2026-04-24 17:30 | 6.24 | 425 | 2300 (1983) | 25 (2006) | 434 | 67 | 94 | 172 | 189 | 279 | 501 | 572 | 850 | 1910 |
| 2026-04-24 16:30 | 6.27 | 437 | 2300 (1983) | 25 (2006) | 434 | 67 | 94 | 172 | 189 | 279 | 501 | 572 | 850 | 1910 |
| 2026-04-24 15:30 | 6.22 | 418 | 2300 (1983) | 25 (2006) | 434 | 67 | 94 | 172 | 189 | 279 | 501 | 572 | 850 | 1910 |
| 2026-04-24 14:30 | 6.23 | 422 | 2300 (1983) | 25 (2006) | 434 | 67 | 94 | 172 | 189 | 279 | 501 | 572 | 850 | 1910 |
| 2026-04-24 13:30 | 6.19 | 407 | 2300 (1983) | 25 (2006) | 434 | 67 | 94 | 172 | 189 | 279 | 501 | 572 | 850 | 1910 |
| 2026-04-24 12:30 | 6.15 | 393 | 2300 (1983) | 25 (2006) | 434 | 67 | 94 | 172 | 189 | 279 | 501 | 572 | 850 | 1910 |
| 2026-04-24 11:30 | 6.12 | 382 | 2300 (1983) | 25 (2006) | 434 | 67 | 94 | 172 | 189 | 279 | 501 | 572 | 850 | 1910 |
| 2026-04-24 10:30 | 6.12 | 382 | 2300 (1983) | 25 (2006) | 434 | 67 | 94 | 172 | 189 | 279 | 501 | 572 | 850 | 1910 |
| 2026-04-24 09:30 | 6.09 | 371 | 2300 (1983) | 25 (2006) | 434 | 67 | 94 | 172 | 189 | 279 | 501 | 572 | 850 | 1910 |
| 2026-04-24 08:30 | 6.10 | 375 | 2300 (1983) | 25 (2006) | 434 | 67 | 94 | 172 | 189 | 279 | 501 | 572 | 850 | 1910 |
| 2026-04-24 07:30 | 6.10 | 375 | 2300 (1983) | 25 (2006) | 434 | 67 | 94 | 172 | 189 | 279 | 501 | 572 | 850 | 1910 |
| 2026-04-24 06:30 | 6.09 | 371 | 2300 (1983) | 25 (2006) | 434 | 67 | 94 | 172 | 189 | 279 | 501 | 572 | 850 | 1910 |
| 2026-04-24 05:30 | 6.08 | 368 | 2300 (1983) | 25 (2006) | 434 | 67 | 94 | 172 | 189 | 279 | 501 | 572 | 850 | 1910 |
| 2026-04-24 04:30 | 6.07 | 365 | 2300 (1983) | 25 (2006) | 434 | 67 | 94 | 172 | 189 | 279 | 501 | 572 | 850 | 1910 |
| 2026-04-24 03:30 | 6.04 | 354 | 2300 (1983) | 25 (2006) | 434 | 67 | 94 | 172 | 189 | 279 | 501 | 572 | 850 | 1910 |
| 2026-04-24 02:30 | 6.00 | 341 | 2300 (1983) | 25 (2006) | 434 | 67 | 94 | 172 | 189 | 279 | 501 | 572 | 850 | 1910 |
| 2026-04-24 01:30 | 6.00 | 341 | 2300 (1983) | 25 (2006) | 434 | 67 | 94 | 172 | 189 | 279 | 501 | 572 | 850 | 1910 |
| 2026-04-24 00:30 | 6.00 | 341 | 2300 (1983) | 25 (2006) | 434 | 67 | 94 | 172 | 189 | 279 | 501 | 572 | 850 | 1910 |
| 2026-04-23 23:30 | 6.01 | 344 | 2300 (1983) | 25 (2006) | 434 | 67 | 94 | 172 | 189 | 279 | 501 | 572 | 850 | 1910 |
| 2026-04-23 22:30 | 6.01 | 344 | 5340 (1983) | 21 (2006) | 497 | 67 | 96 | 165 | 188 | 256 | 541 | 623 | 960 | 1480 |
| 2026-04-23 21:30 | 6.03 | 351 | 5340 (1983) | 21 (2006) | 497 | 67 | 96 | 165 | 188 | 256 | 541 | 623 | 960 | 1480 |
| 2026-04-23 20:30 | 6.04 | 354 | 5340 (1983) | 21 (2006) | 497 | 67 | 96 | 165 | 188 | 256 | 541 | 623 | 960 | 1480 |
| 2026-04-23 19:30 | 6.04 | 354 | 5340 (1983) | 21 (2006) | 497 | 67 | 96 | 165 | 188 | 256 | 541 | 623 | 960 | 1480 |
| 2026-04-23 18:30 | 6.05 | 358 | 5340 (1983) | 21 (2006) | 497 | 67 | 96 | 165 | 188 | 256 | 541 | 623 | 960 | 1480 |
| 2026-04-23 17:30 | 6.05 | 358 | 5340 (1983) | 21 (2006) | 497 | 67 | 96 | 165 | 188 | 256 | 541 | 623 | 960 | 1480 |
| 2026-04-23 16:30 | 6.06 | 361 | 5340 (1983) | 21 (2006) | 497 | 67 | 96 | 165 | 188 | 256 | 541 | 623 | 960 | 1480 |
| 2026-04-23 15:30 | 6.08 | 368 | 5340 (1983) | 21 (2006) | 497 | 67 | 96 | 165 | 188 | 256 | 541 | 623 | 960 | 1480 |
| 2026-04-23 14:30 | 6.06 | 361 | 5340 (1983) | 21 (2006) | 497 | 67 | 96 | 165 | 188 | 256 | 541 | 623 | 960 | 1480 |
| 2026-04-23 13:30 | 6.08 | 368 | 5340 (1983) | 21 (2006) | 497 | 67 | 96 | 165 | 188 | 256 | 541 | 623 | 960 | 1480 |
| 2026-04-23 12:30 | 6.07 | 365 | 5340 (1983) | 21 (2006) | 497 | 67 | 96 | 165 | 188 | 256 | 541 | 623 | 960 | 1480 |
| 2026-04-23 11:30 | 6.10 | 375 | 5340 (1983) | 21 (2006) | 497 | 67 | 96 | 165 | 188 | 256 | 541 | 623 | 960 | 1480 |
| 2026-04-23 10:30 | 6.10 | 375 | 5340 (1983) | 21 (2006) | 497 | 67 | 96 | 165 | 188 | 256 | 541 | 623 | 960 | 1480 |
| 2026-04-23 09:30 | 6.12 | 382 | 5340 (1983) | 21 (2006) | 497 | 67 | 96 | 165 | 188 | 256 | 541 | 623 | 960 | 1480 |
| 2026-04-23 08:30 | 6.11 | 378 | 5340 (1983) | 21 (2006) | 497 | 67 | 96 | 165 | 188 | 256 | 541 | 623 | 960 | 1480 |
| 2026-04-23 07:30 | 6.11 | 378 | 5340 (1983) | 21 (2006) | 497 | 67 | 96 | 165 | 188 | 256 | 541 | 623 | 960 | 1480 |
| 2026-04-23 06:30 | 6.12 | 382 | 5340 (1983) | 21 (2006) | 497 | 67 | 96 | 165 | 188 | 256 | 541 | 623 | 960 | 1480 |
| 2026-04-23 05:30 | 6.16 | 396 | 5340 (1983) | 21 (2006) | 497 | 67 | 96 | 165 | 188 | 256 | 541 | 623 | 960 | 1480 |
| 2026-04-23 04:30 | 6.14 | 389 | 5340 (1983) | 21 (2006) | 497 | 67 | 96 | 165 | 188 | 256 | 541 | 623 | 960 | 1480 |
| 2026-04-23 03:30 | 6.16 | 396 | 5340 (1983) | 21 (2006) | 497 | 67 | 96 | 165 | 188 | 256 | 541 | 623 | 960 | 1480 |
| 2026-04-23 02:30 | 6.15 | 393 | 5340 (1983) | 21 (2006) | 497 | 67 | 96 | 165 | 188 | 256 | 541 | 623 | 960 | 1480 |
| 2026-04-23 01:30 | 6.18 | 403 | 5340 (1983) | 21 (2006) | 497 | 67 | 96 | 165 | 188 | 256 | 541 | 623 | 960 | 1480 |
| 2026-04-23 00:30 | 6.17 | 400 | 5340 (1983) | 21 (2006) | 497 | 67 | 96 | 165 | 188 | 256 | 541 | 623 | 960 | 1480 |
| 2026-04-22 23:30 | 6.17 | 400 | 5340 (1983) | 21 (2006) | 497 | 67 | 96 | 165 | 188 | 256 | 541 | 623 | 960 | 1480 |
| 2026-04-22 22:30 | 6.21 | 414 | 6500 (1973) | 22 (2006) | 489 | 65 | 89 | 151 | 173 | 269 | 458 | 484 | 883 | 1890 |
| 2026-04-22 21:30 | 6.21 | 414 | 6500 (1973) | 22 (2006) | 489 | 65 | 89 | 151 | 173 | 269 | 458 | 484 | 883 | 1890 |
| 2026-04-22 20:30 | 6.19 | 407 | 6500 (1973) | 22 (2006) | 489 | 65 | 89 | 151 | 173 | 269 | 458 | 484 | 883 | 1890 |
| 2026-04-22 19:30 | 6.22 | 418 | 6500 (1973) | 22 (2006) | 489 | 65 | 89 | 151 | 173 | 269 | 458 | 484 | 883 | 1890 |
| 2026-04-22 18:30 | 6.23 | 422 | 6500 (1973) | 22 (2006) | 489 | 65 | 89 | 151 | 173 | 269 | 458 | 484 | 883 | 1890 |
| 2026-04-22 17:30 | 6.23 | 422 | 6500 (1973) | 22 (2006) | 489 | 65 | 89 | 151 | 173 | 269 | 458 | 484 | 883 | 1890 |
| 2026-04-22 16:30 | 6.25 | 429 | 6500 (1973) | 22 (2006) | 489 | 65 | 89 | 151 | 173 | 269 | 458 | 484 | 883 | 1890 |
| 2026-04-22 15:30 | 6.26 | 433 | 6500 (1973) | 22 (2006) | 489 | 65 | 89 | 151 | 173 | 269 | 458 | 484 | 883 | 1890 |
| 2026-04-22 14:30 | 6.27 | 437 | 6500 (1973) | 22 (2006) | 489 | 65 | 89 | 151 | 173 | 269 | 458 | 484 | 883 | 1890 |
| 2026-04-22 13:30 | 6.27 | 437 | 6500 (1973) | 22 (2006) | 489 | 65 | 89 | 151 | 173 | 269 | 458 | 484 | 883 | 1890 |
| 2026-04-22 12:30 | 6.31 | 452 | 6500 (1973) | 22 (2006) | 489 | 65 | 89 | 151 | 173 | 269 | 458 | 484 | 883 | 1890 |
| 2026-04-22 11:30 | 6.29 | 444 | 6500 (1973) | 22 (2006) | 489 | 65 | 89 | 151 | 173 | 269 | 458 | 484 | 883 | 1890 |
| 2026-04-22 10:30 | 6.30 | 448 | 6500 (1973) | 22 (2006) | 489 | 65 | 89 | 151 | 173 | 269 | 458 | 484 | 883 | 1890 |
| 2026-04-22 09:30 | 6.32 | 456 | 6500 (1973) | 22 (2006) | 489 | 65 | 89 | 151 | 173 | 269 | 458 | 484 | 883 | 1890 |
| 2026-04-22 08:30 | 6.33 | 460 | 6500 (1973) | 22 (2006) | 489 | 65 | 89 | 151 | 173 | 269 | 458 | 484 | 883 | 1890 |
| 2026-04-22 07:30 | 6.32 | 456 | 6500 (1973) | 22 (2006) | 489 | 65 | 89 | 151 | 173 | 269 | 458 | 484 | 883 | 1890 |
| 2026-04-22 06:30 | 6.32 | 456 | 6500 (1973) | 22 (2006) | 489 | 65 | 89 | 151 | 173 | 269 | 458 | 484 | 883 | 1890 |
| 2026-04-22 05:30 | 6.37 | 475 | 6500 (1973) | 22 (2006) | 489 | 65 | 89 | 151 | 173 | 269 | 458 | 484 | 883 | 1890 |
| 2026-04-22 04:30 | 6.38 | 479 | 6500 (1973) | 22 (2006) | 489 | 65 | 89 | 151 | 173 | 269 | 458 | 484 | 883 | 1890 |
| 2026-04-22 03:30 | 6.38 | 479 | 6500 (1973) | 22 (2006) | 489 | 65 | 89 | 151 | 173 | 269 | 458 | 484 | 883 | 1890 |
| 2026-04-22 02:30 | 6.40 | 487 | 6500 (1973) | 22 (2006) | 489 | 65 | 89 | 151 | 173 | 269 | 458 | 484 | 883 | 1890 |
| 2026-04-22 01:30 | 6.40 | 487 | 6500 (1973) | 22 (2006) | 489 | 65 | 89 | 151 | 173 | 269 | 458 | 484 | 883 | 1890 |
| 2026-04-22 00:30 | 6.41 | 491 | 6500 (1973) | 22 (2006) | 489 | 65 | 89 | 151 | 173 | 269 | 458 | 484 | 883 | 1890 |
| 2026-04-21 23:30 | 6.42 | 495 | 6500 (1973) | 22 (2006) | 489 | 65 | 89 | 151 | 173 | 269 | 458 | 484 | 883 | 1890 |
| 2026-04-21 22:30 | 6.43 | 499 | 4160 (1984) | 21 (2006) | 489 | 57 | 85 | 141 | 170 | 257 | 542 | 620 | 981 | 2470 |
| 2026-04-21 21:30 | 6.45 | 507 | 4160 (1984) | 21 (2006) | 489 | 57 | 85 | 141 | 170 | 257 | 542 | 620 | 981 | 2470 |
| 2026-04-21 20:30 | 6.45 | 507 | 4160 (1984) | 21 (2006) | 489 | 57 | 85 | 141 | 170 | 257 | 542 | 620 | 981 | 2470 |
| 2026-04-21 19:30 | 6.47 | 516 | 4160 (1984) | 21 (2006) | 489 | 57 | 85 | 141 | 170 | 257 | 542 | 620 | 981 | 2470 |
| 2026-04-21 18:30 | 6.48 | 520 | 4160 (1984) | 21 (2006) | 489 | 57 | 85 | 141 | 170 | 257 | 542 | 620 | 981 | 2470 |
| 2026-04-21 17:30 | 6.51 | 532 | 4160 (1984) | 21 (2006) | 489 | 57 | 85 | 141 | 170 | 257 | 542 | 620 | 981 | 2470 |
| 2026-04-21 16:30 | 6.53 | 541 | 4160 (1984) | 21 (2006) | 489 | 57 | 85 | 141 | 170 | 257 | 542 | 620 | 981 | 2470 |
| 2026-04-21 15:30 | 6.55 | 549 | 4160 (1984) | 21 (2006) | 489 | 57 | 85 | 141 | 170 | 257 | 542 | 620 | 981 | 2470 |
| 2026-04-21 14:30 | 6.58 | 562 | 4160 (1984) | 21 (2006) | 489 | 57 | 85 | 141 | 170 | 257 | 542 | 620 | 981 | 2470 |
| 2026-04-21 13:30 | 6.58 | 562 | 4160 (1984) | 21 (2006) | 489 | 57 | 85 | 141 | 170 | 257 | 542 | 620 | 981 | 2470 |
| 2026-04-21 12:30 | 6.59 | 566 | 4160 (1984) | 21 (2006) | 489 | 57 | 85 | 141 | 170 | 257 | 542 | 620 | 981 | 2470 |
| 2026-04-21 11:30 | 6.60 | 571 | 4160 (1984) | 21 (2006) | 489 | 57 | 85 | 141 | 170 | 257 | 542 | 620 | 981 | 2470 |
| 2026-04-21 10:30 | 6.61 | 575 | 4160 (1984) | 21 (2006) | 489 | 57 | 85 | 141 | 170 | 257 | 542 | 620 | 981 | 2470 |
| 2026-04-21 09:30 | 6.64 | 588 | 4160 (1984) | 21 (2006) | 489 | 57 | 85 | 141 | 170 | 257 | 542 | 620 | 981 | 2470 |
| 2026-04-21 08:30 | 6.65 | 593 | 4160 (1984) | 21 (2006) | 489 | 57 | 85 | 141 | 170 | 257 | 542 | 620 | 981 | 2470 |
| 2026-04-21 07:30 | 6.64 | 588 | 4160 (1984) | 21 (2006) | 489 | 57 | 85 | 141 | 170 | 257 | 542 | 620 | 981 | 2470 |
| 2026-04-21 06:30 | 6.64 | 588 | 4160 (1984) | 21 (2006) | 489 | 57 | 85 | 141 | 170 | 257 | 542 | 620 | 981 | 2470 |
| 2026-04-21 05:30 | 6.69 | 611 | 4160 (1984) | 21 (2006) | 489 | 57 | 85 | 141 | 170 | 257 | 542 | 620 | 981 | 2470 |
| 2026-04-21 04:30 | 6.69 | 611 | 4160 (1984) | 21 (2006) | 489 | 57 | 85 | 141 | 170 | 257 | 542 | 620 | 981 | 2470 |
| 2026-04-21 03:30 | 6.70 | 615 | 4160 (1984) | 21 (2006) | 489 | 57 | 85 | 141 | 170 | 257 | 542 | 620 | 981 | 2470 |
| 2026-04-21 02:30 | 6.57 | 558 | 4160 (1984) | 21 (2006) | 489 | 57 | 85 | 141 | 170 | 257 | 542 | 620 | 981 | 2470 |
| 2026-04-21 01:30 | 6.75 | 638 | 4160 (1984) | 21 (2006) | 489 | 57 | 85 | 141 | 170 | 257 | 542 | 620 | 981 | 2470 |
| 2026-04-21 00:30 | 6.76 | 643 | 4160 (1984) | 21 (2006) | 489 | 57 | 85 | 141 | 170 | 257 | 542 | 620 | 981 | 2470 |
| 2026-04-20 23:30 | 6.79 | 657 | 4160 (1984) | 21 (2006) | 489 | 57 | 85 | 141 | 170 | 257 | 542 | 620 | 981 | 2470 |
| 2026-04-20 22:30 | 6.80 | 661 | 2330 (2025) | 22 (2006) | 382 | 43 | 90 | 147 | 166 | 262 | 411 | 466 | 780 | 1090 |
| 2026-04-20 21:30 | 6.81 | 666 | 2330 (2025) | 22 (2006) | 382 | 43 | 90 | 147 | 166 | 262 | 411 | 466 | 780 | 1090 |
| 2026-04-20 20:30 | 6.83 | 676 | 2330 (2025) | 22 (2006) | 382 | 43 | 90 | 147 | 166 | 262 | 411 | 466 | 780 | 1090 |
| 2026-04-20 19:30 | 6.85 | 685 | 2330 (2025) | 22 (2006) | 382 | 43 | 90 | 147 | 166 | 262 | 411 | 466 | 780 | 1090 |
| 2026-04-20 18:30 | 6.87 | 695 | 2330 (2025) | 22 (2006) | 382 | 43 | 90 | 147 | 166 | 262 | 411 | 466 | 780 | 1090 |
| 2026-04-20 17:30 | 6.90 | 709 | 2330 (2025) | 22 (2006) | 382 | 43 | 90 | 147 | 166 | 262 | 411 | 466 | 780 | 1090 |
| 2026-04-20 16:30 | 6.93 | 724 | 2330 (2025) | 22 (2006) | 382 | 43 | 90 | 147 | 166 | 262 | 411 | 466 | 780 | 1090 |
| 2026-04-20 15:30 | 6.95 | 734 | 2330 (2025) | 22 (2006) | 382 | 43 | 90 | 147 | 166 | 262 | 411 | 466 | 780 | 1090 |
| 2026-04-20 14:30 | 6.99 | 751 | 2330 (2025) | 22 (2006) | 382 | 43 | 90 | 147 | 166 | 262 | 411 | 466 | 780 | 1090 |
| 2026-04-20 13:30 | 7.00 | 755 | 2330 (2025) | 22 (2006) | 382 | 43 | 90 | 147 | 166 | 262 | 411 | 466 | 780 | 1090 |
| 2026-04-20 12:30 | 7.02 | 764 | 2330 (2025) | 22 (2006) | 382 | 43 | 90 | 147 | 166 | 262 | 411 | 466 | 780 | 1090 |
| 2026-04-20 11:30 | 7.03 | 768 | 2330 (2025) | 22 (2006) | 382 | 43 | 90 | 147 | 166 | 262 | 411 | 466 | 780 | 1090 |
| 2026-04-20 10:30 | 7.07 | 786 | 2330 (2025) | 22 (2006) | 382 | 43 | 90 | 147 | 166 | 262 | 411 | 466 | 780 | 1090 |
| 2026-04-20 09:30 | 7.07 | 786 | 2330 (2025) | 22 (2006) | 382 | 43 | 90 | 147 | 166 | 262 | 411 | 466 | 780 | 1090 |
| 2026-04-20 08:30 | 7.08 | 790 | 2330 (2025) | 22 (2006) | 382 | 43 | 90 | 147 | 166 | 262 | 411 | 466 | 780 | 1090 |
| 2026-04-20 07:30 | 7.12 | 808 | 2330 (2025) | 22 (2006) | 382 | 43 | 90 | 147 | 166 | 262 | 411 | 466 | 780 | 1090 |
| 2026-04-20 06:30 | 7.15 | 822 | 2330 (2025) | 22 (2006) | 382 | 43 | 90 | 147 | 166 | 262 | 411 | 466 | 780 | 1090 |
| 2026-04-20 05:30 | 7.18 | 835 | 2330 (2025) | 22 (2006) | 382 | 43 | 90 | 147 | 166 | 262 | 411 | 466 | 780 | 1090 |
| 2026-04-20 04:30 | 7.20 | 845 | 2330 (2025) | 22 (2006) | 382 | 43 | 90 | 147 | 166 | 262 | 411 | 466 | 780 | 1090 |
| 2026-04-20 03:30 | 7.23 | 858 | 2330 (2025) | 22 (2006) | 382 | 43 | 90 | 147 | 166 | 262 | 411 | 466 | 780 | 1090 |
| 2026-04-20 02:30 | 7.26 | 872 | 2330 (2025) | 22 (2006) | 382 | 43 | 90 | 147 | 166 | 262 | 411 | 466 | 780 | 1090 |
| 2026-04-20 01:30 | 7.30 | 891 | 2330 (2025) | 22 (2006) | 382 | 43 | 90 | 147 | 166 | 262 | 411 | 466 | 780 | 1090 |
| 2026-04-20 00:30 | 7.31 | 896 | 2330 (2025) | 22 (2006) | 382 | 43 | 90 | 147 | 166 | 262 | 411 | 466 | 780 | 1090 |
| 2026-04-19 23:30 | 7.34 | 910 | 2330 (2025) | 22 (2006) | 382 | 43 | 90 | 147 | 166 | 262 | 411 | 466 | 780 | 1090 |
| 2026-04-19 22:30 | 7.37 | 924 | 1080 (2013) | 21 (2006) | 308 | 32 | 81 | 124 | 159 | 242 | 389 | 431 | 671 | 878 |
| 2026-04-19 21:30 | 7.41 | 943 | 1080 (2013) | 21 (2006) | 308 | 32 | 81 | 124 | 159 | 242 | 389 | 431 | 671 | 878 |
| 2026-04-19 20:30 | 7.44 | 958 | 1080 (2013) | 21 (2006) | 308 | 32 | 81 | 124 | 159 | 242 | 389 | 431 | 671 | 878 |
| 2026-04-19 19:30 | 7.47 | 972 | 1080 (2013) | 21 (2006) | 308 | 32 | 81 | 124 | 159 | 242 | 389 | 431 | 671 | 878 |
| 2026-04-19 18:30 | 7.52 | 997 | 1080 (2013) | 21 (2006) | 308 | 32 | 81 | 124 | 159 | 242 | 389 | 431 | 671 | 878 |
| 2026-04-19 17:30 | 7.56 | 1020 | 1080 (2013) | 21 (2006) | 308 | 32 | 81 | 124 | 159 | 242 | 389 | 431 | 671 | 878 |
| 2026-04-19 16:30 | 7.60 | 1030 | 1080 (2013) | 21 (2006) | 308 | 32 | 81 | 124 | 159 | 242 | 389 | 431 | 671 | 878 |
| 2026-04-19 15:30 | 7.64 | 1050 | 1080 (2013) | 21 (2006) | 308 | 32 | 81 | 124 | 159 | 242 | 389 | 431 | 671 | 878 |
| 2026-04-19 14:30 | 7.70 | 1080 | 1080 (2013) | 21 (2006) | 308 | 32 | 81 | 124 | 159 | 242 | 389 | 431 | 671 | 878 |
| 2026-04-19 13:30 | 7.75 | 1100 | 1080 (2013) | 21 (2006) | 308 | 32 | 81 | 124 | 159 | 242 | 389 | 431 | 671 | 878 |
| 2026-04-19 12:30 | 7.78 | 1110 | 1080 (2013) | 21 (2006) | 308 | 32 | 81 | 124 | 159 | 242 | 389 | 431 | 671 | 878 |
| 2026-04-19 11:30 | 7.84 | 1140 | 1080 (2013) | 21 (2006) | 308 | 32 | 81 | 124 | 159 | 242 | 389 | 431 | 671 | 878 |
| 2026-04-19 10:30 | 7.89 | 1160 | 1080 (2013) | 21 (2006) | 308 | 32 | 81 | 124 | 159 | 242 | 389 | 431 | 671 | 878 |
| 2026-04-19 09:30 | 7.94 | 1180 | 1080 (2013) | 21 (2006) | 308 | 32 | 81 | 124 | 159 | 242 | 389 | 431 | 671 | 878 |
| 2026-04-19 08:30 | 7.98 | 1200 | 1080 (2013) | 21 (2006) | 308 | 32 | 81 | 124 | 159 | 242 | 389 | 431 | 671 | 878 |
| 2026-04-19 07:30 | 8.04 | 1220 | 1080 (2013) | 21 (2006) | 308 | 32 | 81 | 124 | 159 | 242 | 389 | 431 | 671 | 878 |
| 2026-04-19 06:30 | 8.07 | 1240 | 1080 (2013) | 21 (2006) | 308 | 32 | 81 | 124 | 159 | 242 | 389 | 431 | 671 | 878 |
| 2026-04-19 05:30 | 8.15 | 1270 | 1080 (2013) | 21 (2006) | 308 | 32 | 81 | 124 | 159 | 242 | 389 | 431 | 671 | 878 |
| 2026-04-19 04:30 | 8.21 | 1300 | 1080 (2013) | 21 (2006) | 308 | 32 | 81 | 124 | 159 | 242 | 389 | 431 | 671 | 878 |
| 2026-04-19 03:30 | 8.30 | 1340 | 1080 (2013) | 21 (2006) | 308 | 32 | 81 | 124 | 159 | 242 | 389 | 431 | 671 | 878 |
| 2026-04-19 02:30 | 8.40 | 1380 | 1080 (2013) | 21 (2006) | 308 | 32 | 81 | 124 | 159 | 242 | 389 | 431 | 671 | 878 |
| 2026-04-19 01:30 | 8.50 | 1430 | 1080 (2013) | 21 (2006) | 308 | 32 | 81 | 124 | 159 | 242 | 389 | 431 | 671 | 878 |
| 2026-04-19 00:30 | 8.57 | 1470 | 1080 (2013) | 21 (2006) | 308 | 32 | 81 | 124 | 159 | 242 | 389 | 431 | 671 | 878 |
| 2026-04-18 23:30 | 8.70 | 1530 | 1080 (2013) | 21 (2006) | 308 | 32 | 81 | 124 | 159 | 242 | 389 | 431 | 671 | 878 |
| 2026-04-18 22:30 | 8.81 | 1590 | 2130 (2013) | 22 (2006) | 332 | 31 | 71 | 115 | 159 | 239 | 404 | 452 | 598 | 862 |
| 2026-04-18 21:30 | 8.93 | 1650 | 2130 (2013) | 22 (2006) | 332 | 31 | 71 | 115 | 159 | 239 | 404 | 452 | 598 | 862 |
| 2026-04-18 20:30 | 9.07 | 1730 | 2130 (2013) | 22 (2006) | 332 | 31 | 71 | 115 | 159 | 239 | 404 | 452 | 598 | 862 |
| 2026-04-18 19:30 | 9.23 | 1820 | 2130 (2013) | 22 (2006) | 332 | 31 | 71 | 115 | 159 | 239 | 404 | 452 | 598 | 862 |
| 2026-04-18 18:30 | 9.39 | 1900 | 2130 (2013) | 22 (2006) | 332 | 31 | 71 | 115 | 159 | 239 | 404 | 452 | 598 | 862 |
| 2026-04-18 17:30 | 9.61 | 2030 | 2130 (2013) | 22 (2006) | 332 | 31 | 71 | 115 | 159 | 239 | 404 | 452 | 598 | 862 |
| 2026-04-18 16:30 | 9.80 | 2140 | 2130 (2013) | 22 (2006) | 332 | 31 | 71 | 115 | 159 | 239 | 404 | 452 | 598 | 862 |
| 2026-04-18 15:30 | 9.99 | 2250 | 2130 (2013) | 22 (2006) | 332 | 31 | 71 | 115 | 159 | 239 | 404 | 452 | 598 | 862 |
| 2026-04-18 14:30 | 10.22 | 2370 | 2130 (2013) | 22 (2006) | 332 | 31 | 71 | 115 | 159 | 239 | 404 | 452 | 598 | 862 |
| 2026-04-18 13:30 | 10.43 | 2470 | 2130 (2013) | 22 (2006) | 332 | 31 | 71 | 115 | 159 | 239 | 404 | 452 | 598 | 862 |
| 2026-04-18 12:30 | 10.69 | 2600 | 2130 (2013) | 22 (2006) | 332 | 31 | 71 | 115 | 159 | 239 | 404 | 452 | 598 | 862 |
| 2026-04-18 11:30 | 11.04 | 2780 | 2130 (2013) | 22 (2006) | 332 | 31 | 71 | 115 | 159 | 239 | 404 | 452 | 598 | 862 |
| 2026-04-18 10:30 | 11.54 | 3030 | 2130 (2013) | 22 (2006) | 332 | 31 | 71 | 115 | 159 | 239 | 404 | 452 | 598 | 862 |
| 2026-04-18 09:30 | 12.02 | 3250 | 2130 (2013) | 22 (2006) | 332 | 31 | 71 | 115 | 159 | 239 | 404 | 452 | 598 | 862 |
| 2026-04-18 08:30 | 12.34 | 3400 | 2130 (2013) | 22 (2006) | 332 | 31 | 71 | 115 | 159 | 239 | 404 | 452 | 598 | 862 |
| 2026-04-18 07:30 | 12.24 | 3350 | 2130 (2013) | 22 (2006) | 332 | 31 | 71 | 115 | 159 | 239 | 404 | 452 | 598 | 862 |
| 2026-04-18 06:30 | 11.74 | 3120 | 2130 (2013) | 22 (2006) | 332 | 31 | 71 | 115 | 159 | 239 | 404 | 452 | 598 | 862 |
| 2026-04-18 05:30 | 10.51 | 2510 | 2130 (2013) | 22 (2006) | 332 | 31 | 71 | 115 | 159 | 239 | 404 | 452 | 598 | 862 |
| 2026-04-18 04:30 | 8.75 | 1560 | 2130 (2013) | 22 (2006) | 332 | 31 | 71 | 115 | 159 | 239 | 404 | 452 | 598 | 862 |
| 2026-04-18 03:30 | 7.31 | 896 | 2130 (2013) | 22 (2006) | 332 | 31 | 71 | 115 | 159 | 239 | 404 | 452 | 598 | 862 |
| 2026-04-18 02:30 | 6.66 | 597 | 2130 (2013) | 22 (2006) | 332 | 31 | 71 | 115 | 159 | 239 | 404 | 452 | 598 | 862 |
| 2026-04-18 01:30 | 6.48 | 520 | 2130 (2013) | 22 (2006) | 332 | 31 | 71 | 115 | 159 | 239 | 404 | 452 | 598 | 862 |
| 2026-04-18 00:30 | 6.30 | 448 | 2130 (2013) | 22 (2006) | 332 | 31 | 71 | 115 | 159 | 239 | 404 | 452 | 598 | 862 |
| 2026-04-17 23:30 | 6.20 | 411 | 2130 (2013) | 22 (2006) | 332 | 31 | 71 | 115 | 159 | 239 | 404 | 452 | 598 | 862 |
| 2026-04-17 22:30 | 6.19 | 407 | 977 (1994) | 22 (2006) | 302 | 31 | 74 | 113 | 146 | 246 | 421 | 453 | 623 | 888 |
| 2026-04-17 21:30 | 6.13 | 385 | 977 (1994) | 22 (2006) | 302 | 31 | 74 | 113 | 146 | 246 | 421 | 453 | 623 | 888 |
| 2026-04-17 20:30 | 6.15 | 393 | 977 (1994) | 22 (2006) | 302 | 31 | 74 | 113 | 146 | 246 | 421 | 453 | 623 | 888 |
| 2026-04-17 19:30 | 6.13 | 385 | 977 (1994) | 22 (2006) | 302 | 31 | 74 | 113 | 146 | 246 | 421 | 453 | 623 | 888 |
| 2026-04-17 18:30 | 6.16 | 396 | 977 (1994) | 22 (2006) | 302 | 31 | 74 | 113 | 146 | 246 | 421 | 453 | 623 | 888 |
| 2026-04-17 17:30 | 6.18 | 403 | 977 (1994) | 22 (2006) | 302 | 31 | 74 | 113 | 146 | 246 | 421 | 453 | 623 | 888 |
| 2026-04-17 16:30 | 6.20 | 411 | 977 (1994) | 22 (2006) | 302 | 31 | 74 | 113 | 146 | 246 | 421 | 453 | 623 | 888 |
| 2026-04-17 15:30 | 6.24 | 425 | 977 (1994) | 22 (2006) | 302 | 31 | 74 | 113 | 146 | 246 | 421 | 453 | 623 | 888 |
| 2026-04-17 14:30 | 6.27 | 437 | 977 (1994) | 22 (2006) | 302 | 31 | 74 | 113 | 146 | 246 | 421 | 453 | 623 | 888 |
| 2026-04-17 13:30 | 6.25 | 429 | 977 (1994) | 22 (2006) | 302 | 31 | 74 | 113 | 146 | 246 | 421 | 453 | 623 | 888 |
| 2026-04-17 12:30 | 6.27 | 437 | 977 (1994) | 22 (2006) | 302 | 31 | 74 | 113 | 146 | 246 | 421 | 453 | 623 | 888 |
| 2026-04-17 11:30 | 6.30 | 448 | 977 (1994) | 22 (2006) | 302 | 31 | 74 | 113 | 146 | 246 | 421 | 453 | 623 | 888 |
| 2026-04-17 10:30 | 6.29 | 444 | 977 (1994) | 22 (2006) | 302 | 31 | 74 | 113 | 146 | 246 | 421 | 453 | 623 | 888 |
| 2026-04-17 09:30 | 6.32 | 456 | 977 (1994) | 22 (2006) | 302 | 31 | 74 | 113 | 146 | 246 | 421 | 453 | 623 | 888 |
| 2026-04-17 08:30 | 6.36 | 471 | 977 (1994) | 22 (2006) | 302 | 31 | 74 | 113 | 146 | 246 | 421 | 453 | 623 | 888 |
| 2026-04-17 07:30 | 6.37 | 475 | 977 (1994) | 22 (2006) | 302 | 31 | 74 | 113 | 146 | 246 | 421 | 453 | 623 | 888 |
| 2026-04-17 06:30 | 6.39 | 483 | 977 (1994) | 22 (2006) | 302 | 31 | 74 | 113 | 146 | 246 | 421 | 453 | 623 | 888 |
| 2026-04-17 05:30 | 6.39 | 483 | 977 (1994) | 22 (2006) | 302 | 31 | 74 | 113 | 146 | 246 | 421 | 453 | 623 | 888 |
| 2026-04-17 04:30 | 6.43 | 499 | 977 (1994) | 22 (2006) | 302 | 31 | 74 | 113 | 146 | 246 | 421 | 453 | 623 | 888 |
| 2026-04-17 03:30 | 6.44 | 503 | 977 (1994) | 22 (2006) | 302 | 31 | 74 | 113 | 146 | 246 | 421 | 453 | 623 | 888 |
| 2026-04-17 02:30 | 6.46 | 511 | 977 (1994) | 22 (2006) | 302 | 31 | 74 | 113 | 146 | 246 | 421 | 453 | 623 | 888 |
| 2026-04-17 01:30 | 6.47 | 516 | 977 (1994) | 22 (2006) | 302 | 31 | 74 | 113 | 146 | 246 | 421 | 453 | 623 | 888 |
| 2026-04-17 00:30 | 6.51 | 532 | 977 (1994) | 22 (2006) | 302 | 31 | 74 | 113 | 146 | 246 | 421 | 453 | 623 | 888 |
| 2026-04-16 23:30 | 6.53 | 541 | 977 (1994) | 22 (2006) | 302 | 31 | 74 | 113 | 146 | 246 | 421 | 453 | 623 | 888 |
| 2026-04-16 22:30 | 6.54 | 545 | 1300 (1973) | 23 (2006) | 333 | 32 | 71 | 107 | 136 | 261 | 462 | 519 | 689 | 1110 |
| 2026-04-16 21:30 | 6.58 | 562 | 1300 (1973) | 23 (2006) | 333 | 32 | 71 | 107 | 136 | 261 | 462 | 519 | 689 | 1110 |
| 2026-04-16 20:30 | 6.59 | 566 | 1300 (1973) | 23 (2006) | 333 | 32 | 71 | 107 | 136 | 261 | 462 | 519 | 689 | 1110 |
| 2026-04-16 19:30 | 6.65 | 593 | 1300 (1973) | 23 (2006) | 333 | 32 | 71 | 107 | 136 | 261 | 462 | 519 | 689 | 1110 |
| 2026-04-16 18:30 | 6.67 | 602 | 1300 (1973) | 23 (2006) | 333 | 32 | 71 | 107 | 136 | 261 | 462 | 519 | 689 | 1110 |
| 2026-04-16 17:30 | 6.70 | 615 | 1300 (1973) | 23 (2006) | 333 | 32 | 71 | 107 | 136 | 261 | 462 | 519 | 689 | 1110 |
| 2026-04-16 16:30 | 6.69 | 611 | 1300 (1973) | 23 (2006) | 333 | 32 | 71 | 107 | 136 | 261 | 462 | 519 | 689 | 1110 |
| 2026-04-16 15:30 | 6.73 | 629 | 1300 (1973) | 23 (2006) | 333 | 32 | 71 | 107 | 136 | 261 | 462 | 519 | 689 | 1110 |
| 2026-04-16 14:30 | 6.75 | 638 | 1300 (1973) | 23 (2006) | 333 | 32 | 71 | 107 | 136 | 261 | 462 | 519 | 689 | 1110 |
| 2026-04-16 13:30 | 6.77 | 647 | 1300 (1973) | 23 (2006) | 333 | 32 | 71 | 107 | 136 | 261 | 462 | 519 | 689 | 1110 |
| 2026-04-16 12:30 | 6.80 | 661 | 1300 (1973) | 23 (2006) | 333 | 32 | 71 | 107 | 136 | 261 | 462 | 519 | 689 | 1110 |
| 2026-04-16 11:30 | 6.87 | 695 | 1300 (1973) | 23 (2006) | 333 | 32 | 71 | 107 | 136 | 261 | 462 | 519 | 689 | 1110 |
| 2026-04-16 10:30 | 6.93 | 724 | 1300 (1973) | 23 (2006) | 333 | 32 | 71 | 107 | 136 | 261 | 462 | 519 | 689 | 1110 |
| 2026-04-16 09:30 | 6.97 | 742 | 1300 (1973) | 23 (2006) | 333 | 32 | 71 | 107 | 136 | 261 | 462 | 519 | 689 | 1110 |
| 2026-04-16 08:30 | 7.03 | 768 | 1300 (1973) | 23 (2006) | 333 | 32 | 71 | 107 | 136 | 261 | 462 | 519 | 689 | 1110 |
| 2026-04-16 07:30 | 7.15 | 822 | 1300 (1973) | 23 (2006) | 333 | 32 | 71 | 107 | 136 | 261 | 462 | 519 | 689 | 1110 |
| 2026-04-16 06:30 | 7.30 | 891 | 1300 (1973) | 23 (2006) | 333 | 32 | 71 | 107 | 136 | 261 | 462 | 519 | 689 | 1110 |
| 2026-04-16 05:30 | 7.40 | 938 | 1300 (1973) | 23 (2006) | 333 | 32 | 71 | 107 | 136 | 261 | 462 | 519 | 689 | 1110 |
| 2026-04-16 04:30 | 7.39 | 934 | 1300 (1973) | 23 (2006) | 333 | 32 | 71 | 107 | 136 | 261 | 462 | 519 | 689 | 1110 |
| 2026-04-16 03:30 | 7.37 | 924 | 1300 (1973) | 23 (2006) | 333 | 32 | 71 | 107 | 136 | 261 | 462 | 519 | 689 | 1110 |
| 2026-04-16 02:30 | 7.11 | 804 | 1300 (1973) | 23 (2006) | 333 | 32 | 71 | 107 | 136 | 261 | 462 | 519 | 689 | 1110 |
| 2026-04-16 01:30 | 6.94 | 729 | 1300 (1973) | 23 (2006) | 333 | 32 | 71 | 107 | 136 | 261 | 462 | 519 | 689 | 1110 |
| 2026-04-16 00:30 | 6.69 | 611 | 1300 (1973) | 23 (2006) | 333 | 32 | 71 | 107 | 136 | 261 | 462 | 519 | 689 | 1110 |
| 2026-04-15 23:30 | 6.63 | 584 | 1300 (1973) | 23 (2006) | 333 | 32 | 71 | 107 | 136 | 261 | 462 | 519 | 689 | 1110 |
| 2026-04-15 22:30 | 5.76 | 267 | 1880 (1999) | 23 (2006) | 354 | 32 | 68 | 112 | 144 | 279 | 472 | 521 | 725 | 840 |
| 2026-04-15 21:30 | 5.45 | 185 | 1880 (1999) | 23 (2006) | 354 | 32 | 68 | 112 | 144 | 279 | 472 | 521 | 725 | 840 |
| 2026-04-15 20:30 | 5.23 | 137 | 1880 (1999) | 23 (2006) | 354 | 32 | 68 | 112 | 144 | 279 | 472 | 521 | 725 | 840 |
| 2026-04-15 19:30 | 5.00 | 95 | 1880 (1999) | 23 (2006) | 354 | 32 | 68 | 112 | 144 | 279 | 472 | 521 | 725 | 840 |
| 2026-04-15 18:30 | 5.00 | 95 | 1880 (1999) | 23 (2006) | 354 | 32 | 68 | 112 | 144 | 279 | 472 | 521 | 725 | 840 |
| 2026-04-15 17:30 | 5.01 | 96 | 1880 (1999) | 23 (2006) | 354 | 32 | 68 | 112 | 144 | 279 | 472 | 521 | 725 | 840 |
| 2026-04-15 16:30 | 5.00 | 95 | 1880 (1999) | 23 (2006) | 354 | 32 | 68 | 112 | 144 | 279 | 472 | 521 | 725 | 840 |
| 2026-04-15 15:30 | 5.00 | 95 | 1880 (1999) | 23 (2006) | 354 | 32 | 68 | 112 | 144 | 279 | 472 | 521 | 725 | 840 |
| 2026-04-15 14:30 | 4.99 | 93 | 1880 (1999) | 23 (2006) | 354 | 32 | 68 | 112 | 144 | 279 | 472 | 521 | 725 | 840 |
| 2026-04-15 13:30 | 5.01 | 96 | 1880 (1999) | 23 (2006) | 354 | 32 | 68 | 112 | 144 | 279 | 472 | 521 | 725 | 840 |
| 2026-04-15 12:30 | 5.00 | 95 | 1880 (1999) | 23 (2006) | 354 | 32 | 68 | 112 | 144 | 279 | 472 | 521 | 725 | 840 |
| 2026-04-15 11:30 | 5.01 | 96 | 1880 (1999) | 23 (2006) | 354 | 32 | 68 | 112 | 144 | 279 | 472 | 521 | 725 | 840 |
| 2026-04-15 10:30 | 4.99 | 93 | 1880 (1999) | 23 (2006) | 354 | 32 | 68 | 112 | 144 | 279 | 472 | 521 | 725 | 840 |
| 2026-04-15 09:30 | 4.98 | 91 | 1880 (1999) | 23 (2006) | 354 | 32 | 68 | 112 | 144 | 279 | 472 | 521 | 725 | 840 |
| 2026-04-15 08:30 | 5.00 | 95 | 1880 (1999) | 23 (2006) | 354 | 32 | 68 | 112 | 144 | 279 | 472 | 521 | 725 | 840 |
| 2026-04-15 07:30 | 4.99 | 93 | 1880 (1999) | 23 (2006) | 354 | 32 | 68 | 112 | 144 | 279 | 472 | 521 | 725 | 840 |
| 2026-04-15 06:30 | 4.98 | 91 | 1880 (1999) | 23 (2006) | 354 | 32 | 68 | 112 | 144 | 279 | 472 | 521 | 725 | 840 |
| 2026-04-15 05:30 | 4.97 | 90 | 1880 (1999) | 23 (2006) | 354 | 32 | 68 | 112 | 144 | 279 | 472 | 521 | 725 | 840 |
| 2026-04-15 04:30 | 4.98 | 91 | 1880 (1999) | 23 (2006) | 354 | 32 | 68 | 112 | 144 | 279 | 472 | 521 | 725 | 840 |
| 2026-04-15 03:30 | 4.96 | 88 | 1880 (1999) | 23 (2006) | 354 | 32 | 68 | 112 | 144 | 279 | 472 | 521 | 725 | 840 |
| 2026-04-15 02:30 | 4.96 | 88 | 1880 (1999) | 23 (2006) | 354 | 32 | 68 | 112 | 144 | 279 | 472 | 521 | 725 | 840 |
| 2026-04-15 01:30 | 4.92 | 82 | 1880 (1999) | 23 (2006) | 354 | 32 | 68 | 112 | 144 | 279 | 472 | 521 | 725 | 840 |
| 2026-04-15 00:30 | 4.93 | 84 | 1880 (1999) | 23 (2006) | 354 | 32 | 68 | 112 | 144 | 279 | 472 | 521 | 725 | 840 |
| 2026-04-14 23:30 | 4.92 | 82 | 1880 (1999) | 23 (2006) | 354 | 32 | 68 | 112 | 144 | 279 | 472 | 521 | 725 | 840 |
| 2026-04-14 22:30 | 4.93 | 84 | 1690 (1999) | 24 (2006) | 367 | 34 | 69 | 116 | 132 | 288 | 469 | 542 | 839 | 1000 |
| 2026-04-14 21:30 | 4.94 | 85 | 1690 (1999) | 24 (2006) | 367 | 34 | 69 | 116 | 132 | 288 | 469 | 542 | 839 | 1000 |
| 2026-04-14 20:30 | 4.94 | 85 | 1690 (1999) | 24 (2006) | 367 | 34 | 69 | 116 | 132 | 288 | 469 | 542 | 839 | 1000 |
| 2026-04-14 19:30 | 4.94 | 85 | 1690 (1999) | 24 (2006) | 367 | 34 | 69 | 116 | 132 | 288 | 469 | 542 | 839 | 1000 |
| 2026-04-14 18:30 | 4.96 | 88 | 1690 (1999) | 24 (2006) | 367 | 34 | 69 | 116 | 132 | 288 | 469 | 542 | 839 | 1000 |
| 2026-04-14 17:30 | 4.94 | 85 | 1690 (1999) | 24 (2006) | 367 | 34 | 69 | 116 | 132 | 288 | 469 | 542 | 839 | 1000 |
| 2026-04-14 16:30 | 4.96 | 88 | 1690 (1999) | 24 (2006) | 367 | 34 | 69 | 116 | 132 | 288 | 469 | 542 | 839 | 1000 |
| 2026-04-14 15:30 | 4.97 | 90 | 1690 (1999) | 24 (2006) | 367 | 34 | 69 | 116 | 132 | 288 | 469 | 542 | 839 | 1000 |
| 2026-04-14 14:30 | 4.96 | 88 | 1690 (1999) | 24 (2006) | 367 | 34 | 69 | 116 | 132 | 288 | 469 | 542 | 839 | 1000 |
| 2026-04-14 13:30 | 4.96 | 88 | 1690 (1999) | 24 (2006) | 367 | 34 | 69 | 116 | 132 | 288 | 469 | 542 | 839 | 1000 |
| 2026-04-14 12:30 | 4.93 | 84 | 1690 (1999) | 24 (2006) | 367 | 34 | 69 | 116 | 132 | 288 | 469 | 542 | 839 | 1000 |
| 2026-04-14 11:30 | 4.96 | 88 | 1690 (1999) | 24 (2006) | 367 | 34 | 69 | 116 | 132 | 288 | 469 | 542 | 839 | 1000 |
| 2026-04-14 09:30 | 4.96 | 88 | 1690 (1999) | 24 (2006) | 367 | 34 | 69 | 116 | 132 | 288 | 469 | 542 | 839 | 1000 |
| 2026-04-14 08:30 | 4.96 | 88 | 1690 (1999) | 24 (2006) | 367 | 34 | 69 | 116 | 132 | 288 | 469 | 542 | 839 | 1000 |
| 2026-04-14 07:30 | 4.94 | 85 | 1690 (1999) | 24 (2006) | 367 | 34 | 69 | 116 | 132 | 288 | 469 | 542 | 839 | 1000 |
| 2026-04-14 06:30 | 4.97 | 90 | 1690 (1999) | 24 (2006) | 367 | 34 | 69 | 116 | 132 | 288 | 469 | 542 | 839 | 1000 |
| 2026-04-14 05:30 | 4.98 | 91 | 1690 (1999) | 24 (2006) | 367 | 34 | 69 | 116 | 132 | 288 | 469 | 542 | 839 | 1000 |
| 2026-04-14 04:30 | 4.97 | 90 | 1690 (1999) | 24 (2006) | 367 | 34 | 69 | 116 | 132 | 288 | 469 | 542 | 839 | 1000 |
| 2026-04-14 03:30 | 4.96 | 88 | 1690 (1999) | 24 (2006) | 367 | 34 | 69 | 116 | 132 | 288 | 469 | 542 | 839 | 1000 |
| 2026-04-14 02:30 | 4.98 | 91 | 1690 (1999) | 24 (2006) | 367 | 34 | 69 | 116 | 132 | 288 | 469 | 542 | 839 | 1000 |
| 2026-04-14 01:30 | 4.95 | 87 | 1690 (1999) | 24 (2006) | 367 | 34 | 69 | 116 | 132 | 288 | 469 | 542 | 839 | 1000 |
| 2026-04-14 00:30 | 4.97 | 90 | 1690 (1999) | 24 (2006) | 367 | 34 | 69 | 116 | 132 | 288 | 469 | 542 | 839 | 1000 |
| 2026-04-13 23:30 | 4.97 | 90 | 1690 (1999) | 24 (2006) | 367 | 34 | 69 | 116 | 132 | 288 | 469 | 542 | 839 | 1000 |
| 2026-04-13 22:30 | 4.98 | 91 | 2500 (1994) | 24 (2006) | 362 | 35 | 70 | 102 | 129 | 266 | 436 | 489 | 744 | 1150 |
| 2026-04-13 21:30 | 4.98 | 91 | 2500 (1994) | 24 (2006) | 362 | 35 | 70 | 102 | 129 | 266 | 436 | 489 | 744 | 1150 |
| 2026-04-13 20:30 | 4.99 | 93 | 2500 (1994) | 24 (2006) | 362 | 35 | 70 | 102 | 129 | 266 | 436 | 489 | 744 | 1150 |
| 2026-04-13 19:30 | 4.99 | 93 | 2500 (1994) | 24 (2006) | 362 | 35 | 70 | 102 | 129 | 266 | 436 | 489 | 744 | 1150 |
| 2026-04-13 18:30 | 4.98 | 91 | 2500 (1994) | 24 (2006) | 362 | 35 | 70 | 102 | 129 | 266 | 436 | 489 | 744 | 1150 |
| 2026-04-13 17:30 | 5.00 | 95 | 2500 (1994) | 24 (2006) | 362 | 35 | 70 | 102 | 129 | 266 | 436 | 489 | 744 | 1150 |
| 2026-04-13 16:30 | 4.99 | 93 | 2500 (1994) | 24 (2006) | 362 | 35 | 70 | 102 | 129 | 266 | 436 | 489 | 744 | 1150 |
| 2026-04-13 15:30 | 5.00 | 95 | 2500 (1994) | 24 (2006) | 362 | 35 | 70 | 102 | 129 | 266 | 436 | 489 | 744 | 1150 |
| 2026-04-13 14:30 | 5.00 | 95 | 2500 (1994) | 24 (2006) | 362 | 35 | 70 | 102 | 129 | 266 | 436 | 489 | 744 | 1150 |
| 2026-04-13 13:30 | 5.00 | 95 | 2500 (1994) | 24 (2006) | 362 | 35 | 70 | 102 | 129 | 266 | 436 | 489 | 744 | 1150 |
| 2026-04-13 12:30 | 4.99 | 93 | 2500 (1994) | 24 (2006) | 362 | 35 | 70 | 102 | 129 | 266 | 436 | 489 | 744 | 1150 |
| 2026-04-13 11:30 | 5.00 | 95 | 2500 (1994) | 24 (2006) | 362 | 35 | 70 | 102 | 129 | 266 | 436 | 489 | 744 | 1150 |
| 2026-04-13 10:30 | 4.99 | 93 | 2500 (1994) | 24 (2006) | 362 | 35 | 70 | 102 | 129 | 266 | 436 | 489 | 744 | 1150 |
| 2026-04-13 09:30 | 5.01 | 96 | 2500 (1994) | 24 (2006) | 362 | 35 | 70 | 102 | 129 | 266 | 436 | 489 | 744 | 1150 |
| 2026-04-13 08:30 | 4.99 | 93 | 2500 (1994) | 24 (2006) | 362 | 35 | 70 | 102 | 129 | 266 | 436 | 489 | 744 | 1150 |
| 2026-04-13 07:30 | 4.99 | 93 | 2500 (1994) | 24 (2006) | 362 | 35 | 70 | 102 | 129 | 266 | 436 | 489 | 744 | 1150 |
| 2026-04-13 06:30 | 5.00 | 95 | 2500 (1994) | 24 (2006) | 362 | 35 | 70 | 102 | 129 | 266 | 436 | 489 | 744 | 1150 |
| 2026-04-13 05:30 | 5.02 | 98 | 2500 (1994) | 24 (2006) | 362 | 35 | 70 | 102 | 129 | 266 | 436 | 489 | 744 | 1150 |
| 2026-04-13 04:30 | 5.01 | 96 | 2500 (1994) | 24 (2006) | 362 | 35 | 70 | 102 | 129 | 266 | 436 | 489 | 744 | 1150 |
| 2026-04-13 03:30 | 5.01 | 96 | 2500 (1994) | 24 (2006) | 362 | 35 | 70 | 102 | 129 | 266 | 436 | 489 | 744 | 1150 |
| 2026-04-13 02:30 | 5.02 | 98 | 2500 (1994) | 24 (2006) | 362 | 35 | 70 | 102 | 129 | 266 | 436 | 489 | 744 | 1150 |
| 2026-04-13 01:30 | 5.00 | 95 | 2500 (1994) | 24 (2006) | 362 | 35 | 70 | 102 | 129 | 266 | 436 | 489 | 744 | 1150 |
| 2026-04-13 00:30 | 5.02 | 98 | 2500 (1994) | 24 (2006) | 362 | 35 | 70 | 102 | 129 | 266 | 436 | 489 | 744 | 1150 |
| 2026-04-12 23:30 | 5.01 | 96 | 2500 (1994) | 24 (2006) | 362 | 35 | 70 | 102 | 129 | 266 | 436 | 489 | 744 | 1150 |
| 2026-04-12 22:30 | 5.00 | 95 | 9460 (1994) | 25 (2006) | 514 | 36 | 71 | 105 | 131 | 282 | 431 | 492 | 916 | 1740 |
| 2026-04-12 21:30 | 4.99 | 93 | 9460 (1994) | 25 (2006) | 514 | 36 | 71 | 105 | 131 | 282 | 431 | 492 | 916 | 1740 |
| 2026-04-12 20:30 | 5.01 | 96 | 9460 (1994) | 25 (2006) | 514 | 36 | 71 | 105 | 131 | 282 | 431 | 492 | 916 | 1740 |
| 2026-04-12 19:30 | 5.01 | 96 | 9460 (1994) | 25 (2006) | 514 | 36 | 71 | 105 | 131 | 282 | 431 | 492 | 916 | 1740 |
| 2026-04-12 18:30 | 5.01 | 96 | 9460 (1994) | 25 (2006) | 514 | 36 | 71 | 105 | 131 | 282 | 431 | 492 | 916 | 1740 |
| 2026-04-12 17:30 | 5.01 | 96 | 9460 (1994) | 25 (2006) | 514 | 36 | 71 | 105 | 131 | 282 | 431 | 492 | 916 | 1740 |
| 2026-04-12 16:30 | 5.02 | 98 | 9460 (1994) | 25 (2006) | 514 | 36 | 71 | 105 | 131 | 282 | 431 | 492 | 916 | 1740 |
| 2026-04-12 15:30 | 5.01 | 96 | 9460 (1994) | 25 (2006) | 514 | 36 | 71 | 105 | 131 | 282 | 431 | 492 | 916 | 1740 |
| 2026-04-12 14:30 | 5.03 | 100 | 9460 (1994) | 25 (2006) | 514 | 36 | 71 | 105 | 131 | 282 | 431 | 492 | 916 | 1740 |
| 2026-04-12 13:30 | 5.01 | 96 | 9460 (1994) | 25 (2006) | 514 | 36 | 71 | 105 | 131 | 282 | 431 | 492 | 916 | 1740 |
| 2026-04-12 12:30 | 5.02 | 98 | 9460 (1994) | 25 (2006) | 514 | 36 | 71 | 105 | 131 | 282 | 431 | 492 | 916 | 1740 |
| 2026-04-12 11:30 | 5.00 | 95 | 9460 (1994) | 25 (2006) | 514 | 36 | 71 | 105 | 131 | 282 | 431 | 492 | 916 | 1740 |
| 2026-04-12 10:30 | 5.03 | 100 | 9460 (1994) | 25 (2006) | 514 | 36 | 71 | 105 | 131 | 282 | 431 | 492 | 916 | 1740 |
| 2026-04-12 09:30 | 5.01 | 96 | 9460 (1994) | 25 (2006) | 514 | 36 | 71 | 105 | 131 | 282 | 431 | 492 | 916 | 1740 |
| 2026-04-12 08:30 | 4.99 | 93 | 9460 (1994) | 25 (2006) | 514 | 36 | 71 | 105 | 131 | 282 | 431 | 492 | 916 | 1740 |
| 2026-04-12 07:30 | 5.02 | 98 | 9460 (1994) | 25 (2006) | 514 | 36 | 71 | 105 | 131 | 282 | 431 | 492 | 916 | 1740 |
| 2026-04-12 06:30 | 5.03 | 100 | 9460 (1994) | 25 (2006) | 514 | 36 | 71 | 105 | 131 | 282 | 431 | 492 | 916 | 1740 |
| 2026-04-12 05:30 | 5.00 | 95 | 9460 (1994) | 25 (2006) | 514 | 36 | 71 | 105 | 131 | 282 | 431 | 492 | 916 | 1740 |
| 2026-04-12 04:30 | 5.02 | 98 | 9460 (1994) | 25 (2006) | 514 | 36 | 71 | 105 | 131 | 282 | 431 | 492 | 916 | 1740 |
| 2026-04-12 03:30 | 5.02 | 98 | 9460 (1994) | 25 (2006) | 514 | 36 | 71 | 105 | 131 | 282 | 431 | 492 | 916 | 1740 |
| 2026-04-12 02:30 | 5.00 | 95 | 9460 (1994) | 25 (2006) | 514 | 36 | 71 | 105 | 131 | 282 | 431 | 492 | 916 | 1740 |
| 2026-04-12 01:30 | 5.02 | 98 | 9460 (1994) | 25 (2006) | 514 | 36 | 71 | 105 | 131 | 282 | 431 | 492 | 916 | 1740 |
| 2026-04-12 00:30 | 5.02 | 98 | 9460 (1994) | 25 (2006) | 514 | 36 | 71 | 105 | 131 | 282 | 431 | 492 | 916 | 1740 |
| 2026-04-11 23:30 | 5.01 | 96 | 9460 (1994) | 25 (2006) | 514 | 36 | 71 | 105 | 131 | 282 | 431 | 492 | 916 | 1740 |
| 2026-04-11 22:30 | 5.00 | 95 | 6770 (1994) | 24 (2006) | 505 | 36 | 71 | 112 | 136 | 284 | 481 | 508 | 986 | 1560 |
| 2026-04-11 21:30 | 5.03 | 100 | 6770 (1994) | 24 (2006) | 505 | 36 | 71 | 112 | 136 | 284 | 481 | 508 | 986 | 1560 |
| 2026-04-11 20:30 | 5.01 | 96 | 6770 (1994) | 24 (2006) | 505 | 36 | 71 | 112 | 136 | 284 | 481 | 508 | 986 | 1560 |
| 2026-04-11 19:30 | 5.01 | 96 | 6770 (1994) | 24 (2006) | 505 | 36 | 71 | 112 | 136 | 284 | 481 | 508 | 986 | 1560 |
| 2026-04-11 18:30 | 5.02 | 98 | 6770 (1994) | 24 (2006) | 505 | 36 | 71 | 112 | 136 | 284 | 481 | 508 | 986 | 1560 |
| 2026-04-11 17:30 | 5.03 | 100 | 6770 (1994) | 24 (2006) | 505 | 36 | 71 | 112 | 136 | 284 | 481 | 508 | 986 | 1560 |
| 2026-04-11 16:30 | 5.01 | 96 | 6770 (1994) | 24 (2006) | 505 | 36 | 71 | 112 | 136 | 284 | 481 | 508 | 986 | 1560 |
| 2026-04-11 15:30 | 5.02 | 98 | 6770 (1994) | 24 (2006) | 505 | 36 | 71 | 112 | 136 | 284 | 481 | 508 | 986 | 1560 |
| 2026-04-11 14:30 | 5.01 | 96 | 6770 (1994) | 24 (2006) | 505 | 36 | 71 | 112 | 136 | 284 | 481 | 508 | 986 | 1560 |
| 2026-04-11 13:30 | 4.99 | 93 | 6770 (1994) | 24 (2006) | 505 | 36 | 71 | 112 | 136 | 284 | 481 | 508 | 986 | 1560 |
| 2026-04-11 12:30 | 5.01 | 96 | 6770 (1994) | 24 (2006) | 505 | 36 | 71 | 112 | 136 | 284 | 481 | 508 | 986 | 1560 |
| 2026-04-11 11:30 | 4.98 | 91 | 6770 (1994) | 24 (2006) | 505 | 36 | 71 | 112 | 136 | 284 | 481 | 508 | 986 | 1560 |
| 2026-04-11 10:30 | 4.98 | 91 | 6770 (1994) | 24 (2006) | 505 | 36 | 71 | 112 | 136 | 284 | 481 | 508 | 986 | 1560 |
| 2026-04-11 09:30 | 4.97 | 90 | 6770 (1994) | 24 (2006) | 505 | 36 | 71 | 112 | 136 | 284 | 481 | 508 | 986 | 1560 |
| 2026-04-11 08:30 | 4.97 | 90 | 6770 (1994) | 24 (2006) | 505 | 36 | 71 | 112 | 136 | 284 | 481 | 508 | 986 | 1560 |
| 2026-04-11 07:30 | 4.94 | 85 | 6770 (1994) | 24 (2006) | 505 | 36 | 71 | 112 | 136 | 284 | 481 | 508 | 986 | 1560 |
| 2026-04-11 06:30 | 4.95 | 87 | 6770 (1994) | 24 (2006) | 505 | 36 | 71 | 112 | 136 | 284 | 481 | 508 | 986 | 1560 |
| 2026-04-11 05:30 | 4.97 | 90 | 6770 (1994) | 24 (2006) | 505 | 36 | 71 | 112 | 136 | 284 | 481 | 508 | 986 | 1560 |
| 2026-04-11 04:30 | 4.96 | 88 | 6770 (1994) | 24 (2006) | 505 | 36 | 71 | 112 | 136 | 284 | 481 | 508 | 986 | 1560 |
| 2026-04-11 03:30 | 4.96 | 88 | 6770 (1994) | 24 (2006) | 505 | 36 | 71 | 112 | 136 | 284 | 481 | 508 | 986 | 1560 |
| 2026-04-11 02:30 | 4.96 | 88 | 6770 (1994) | 24 (2006) | 505 | 36 | 71 | 112 | 136 | 284 | 481 | 508 | 986 | 1560 |
| 2026-04-11 01:30 | 4.96 | 88 | 6770 (1994) | 24 (2006) | 505 | 36 | 71 | 112 | 136 | 284 | 481 | 508 | 986 | 1560 |
| 2026-04-11 00:30 | 4.97 | 90 | 6770 (1994) | 24 (2006) | 505 | 36 | 71 | 112 | 136 | 284 | 481 | 508 | 986 | 1560 |
| 2026-04-10 23:30 | 4.97 | 90 | 6770 (1994) | 24 (2006) | 505 | 36 | 71 | 112 | 136 | 284 | 481 | 508 | 986 | 1560 |
| 2026-04-10 22:30 | 4.97 | 90 | 5310 (1994) | 25 (2006) | 491 | 38 | 71 | 118 | 136 | 290 | 498 | 552 | 926 | 1250 |
| 2026-04-10 21:30 | 4.96 | 88 | 5310 (1994) | 25 (2006) | 491 | 38 | 71 | 118 | 136 | 290 | 498 | 552 | 926 | 1250 |
| 2026-04-10 20:30 | 4.97 | 90 | 5310 (1994) | 25 (2006) | 491 | 38 | 71 | 118 | 136 | 290 | 498 | 552 | 926 | 1250 |
| 2026-04-10 19:30 | 4.97 | 90 | 5310 (1994) | 25 (2006) | 491 | 38 | 71 | 118 | 136 | 290 | 498 | 552 | 926 | 1250 |
| 2026-04-10 18:30 | 4.97 | 90 | 5310 (1994) | 25 (2006) | 491 | 38 | 71 | 118 | 136 | 290 | 498 | 552 | 926 | 1250 |
| 2026-04-10 17:30 | 4.96 | 88 | 5310 (1994) | 25 (2006) | 491 | 38 | 71 | 118 | 136 | 290 | 498 | 552 | 926 | 1250 |
| 2026-04-10 16:30 | 4.95 | 87 | 5310 (1994) | 25 (2006) | 491 | 38 | 71 | 118 | 136 | 290 | 498 | 552 | 926 | 1250 |
| 2026-04-10 15:30 | 4.95 | 87 | 5310 (1994) | 25 (2006) | 491 | 38 | 71 | 118 | 136 | 290 | 498 | 552 | 926 | 1250 |
| 2026-04-10 14:30 | 4.96 | 88 | 5310 (1994) | 25 (2006) | 491 | 38 | 71 | 118 | 136 | 290 | 498 | 552 | 926 | 1250 |
| 2026-04-10 13:30 | 4.95 | 87 | 5310 (1994) | 25 (2006) | 491 | 38 | 71 | 118 | 136 | 290 | 498 | 552 | 926 | 1250 |
| 2026-04-10 12:30 | 4.90 | 79 | 5310 (1994) | 25 (2006) | 491 | 38 | 71 | 118 | 136 | 290 | 498 | 552 | 926 | 1250 |
| 2026-04-10 11:30 | 4.91 | 81 | 5310 (1994) | 25 (2006) | 491 | 38 | 71 | 118 | 136 | 290 | 498 | 552 | 926 | 1250 |
| 2026-04-10 10:30 | 4.91 | 81 | 5310 (1994) | 25 (2006) | 491 | 38 | 71 | 118 | 136 | 290 | 498 | 552 | 926 | 1250 |
| 2026-04-10 09:30 | 4.91 | 81 | 5310 (1994) | 25 (2006) | 491 | 38 | 71 | 118 | 136 | 290 | 498 | 552 | 926 | 1250 |
| 2026-04-10 08:30 | 4.91 | 81 | 5310 (1994) | 25 (2006) | 491 | 38 | 71 | 118 | 136 | 290 | 498 | 552 | 926 | 1250 |
| 2026-04-10 07:30 | 4.91 | 81 | 5310 (1994) | 25 (2006) | 491 | 38 | 71 | 118 | 136 | 290 | 498 | 552 | 926 | 1250 |
| 2026-04-10 06:30 | 4.92 | 82 | 5310 (1994) | 25 (2006) | 491 | 38 | 71 | 118 | 136 | 290 | 498 | 552 | 926 | 1250 |
| 2026-04-10 05:30 | 4.90 | 79 | 5310 (1994) | 25 (2006) | 491 | 38 | 71 | 118 | 136 | 290 | 498 | 552 | 926 | 1250 |
| 2026-04-10 04:30 | 4.93 | 84 | 5310 (1994) | 25 (2006) | 491 | 38 | 71 | 118 | 136 | 290 | 498 | 552 | 926 | 1250 |
| 2026-04-10 03:30 | 4.92 | 82 | 5310 (1994) | 25 (2006) | 491 | 38 | 71 | 118 | 136 | 290 | 498 | 552 | 926 | 1250 |
| 2026-04-10 02:30 | 4.90 | 79 | 5310 (1994) | 25 (2006) | 491 | 38 | 71 | 118 | 136 | 290 | 498 | 552 | 926 | 1250 |
| 2026-04-10 01:30 | 4.92 | 82 | 5310 (1994) | 25 (2006) | 491 | 38 | 71 | 118 | 136 | 290 | 498 | 552 | 926 | 1250 |
| 2026-04-10 00:30 | 4.92 | 82 | 5310 (1994) | 25 (2006) | 491 | 38 | 71 | 118 | 136 | 290 | 498 | 552 | 926 | 1250 |
| 2026-04-09 23:30 | 4.93 | 84 | 5310 (1994) | 25 (2006) | 491 | 38 | 71 | 118 | 136 | 290 | 498 | 552 | 926 | 1250 |
| 2026-04-09 22:30 | 4.93 | 84 | 1600 (1984) | 25 (2006) | 343 | 38 | 72 | 125 | 139 | 299 | 391 | 493 | 657 | 997 |
| 2026-04-09 21:30 | 4.93 | 84 | 1600 (1984) | 25 (2006) | 343 | 38 | 72 | 125 | 139 | 299 | 391 | 493 | 657 | 997 |
| 2026-04-09 20:30 | 4.93 | 84 | 1600 (1984) | 25 (2006) | 343 | 38 | 72 | 125 | 139 | 299 | 391 | 493 | 657 | 997 |
| 2026-04-09 19:30 | 4.94 | 85 | 1600 (1984) | 25 (2006) | 343 | 38 | 72 | 125 | 139 | 299 | 391 | 493 | 657 | 997 |
| 2026-04-09 18:30 | 4.93 | 84 | 1600 (1984) | 25 (2006) | 343 | 38 | 72 | 125 | 139 | 299 | 391 | 493 | 657 | 997 |
| 2026-04-09 17:30 | 4.93 | 84 | 1600 (1984) | 25 (2006) | 343 | 38 | 72 | 125 | 139 | 299 | 391 | 493 | 657 | 997 |
| 2026-04-09 16:30 | 4.96 | 88 | 1600 (1984) | 25 (2006) | 343 | 38 | 72 | 125 | 139 | 299 | 391 | 493 | 657 | 997 |
| 2026-04-09 15:30 | 4.96 | 88 | 1600 (1984) | 25 (2006) | 343 | 38 | 72 | 125 | 139 | 299 | 391 | 493 | 657 | 997 |
| 2026-04-09 14:30 | 4.95 | 87 | 1600 (1984) | 25 (2006) | 343 | 38 | 72 | 125 | 139 | 299 | 391 | 493 | 657 | 997 |
| 2026-04-09 13:30 | 4.96 | 88 | 1600 (1984) | 25 (2006) | 343 | 38 | 72 | 125 | 139 | 299 | 391 | 493 | 657 | 997 |
| 2026-04-09 12:30 | 4.97 | 90 | 1600 (1984) | 25 (2006) | 343 | 38 | 72 | 125 | 139 | 299 | 391 | 493 | 657 | 997 |
| 2026-04-09 11:30 | 4.97 | 90 | 1600 (1984) | 25 (2006) | 343 | 38 | 72 | 125 | 139 | 299 | 391 | 493 | 657 | 997 |
| 2026-04-09 10:30 | 4.97 | 90 | 1600 (1984) | 25 (2006) | 343 | 38 | 72 | 125 | 139 | 299 | 391 | 493 | 657 | 997 |
| 2026-04-09 09:30 | 4.97 | 90 | 1600 (1984) | 25 (2006) | 343 | 38 | 72 | 125 | 139 | 299 | 391 | 493 | 657 | 997 |
| 2026-04-09 08:30 | 4.98 | 91 | 1600 (1984) | 25 (2006) | 343 | 38 | 72 | 125 | 139 | 299 | 391 | 493 | 657 | 997 |
| 2026-04-09 07:30 | 4.96 | 88 | 1600 (1984) | 25 (2006) | 343 | 38 | 72 | 125 | 139 | 299 | 391 | 493 | 657 | 997 |
| 2026-04-09 06:30 | 4.97 | 90 | 1600 (1984) | 25 (2006) | 343 | 38 | 72 | 125 | 139 | 299 | 391 | 493 | 657 | 997 |
| 2026-04-09 05:30 | 4.97 | 90 | 1600 (1984) | 25 (2006) | 343 | 38 | 72 | 125 | 139 | 299 | 391 | 493 | 657 | 997 |
| 2026-04-09 04:30 | 4.96 | 88 | 1600 (1984) | 25 (2006) | 343 | 38 | 72 | 125 | 139 | 299 | 391 | 493 | 657 | 997 |
| 2026-04-09 02:30 | 4.96 | 88 | 1600 (1984) | 25 (2006) | 343 | 38 | 72 | 125 | 139 | 299 | 391 | 493 | 657 | 997 |
| 2026-04-09 01:30 | 4.95 | 87 | 1600 (1984) | 25 (2006) | 343 | 38 | 72 | 125 | 139 | 299 | 391 | 493 | 657 | 997 |
| 2026-04-09 00:30 | 4.96 | 88 | 1600 (1984) | 25 (2006) | 343 | 38 | 72 | 125 | 139 | 299 | 391 | 493 | 657 | 997 |
| 2026-04-08 23:30 | 4.96 | 88 | 1600 (1984) | 25 (2006) | 343 | 38 | 72 | 125 | 139 | 299 | 391 | 493 | 657 | 997 |
| 2026-04-08 22:30 | 4.97 | 90 | 1870 (1986) | 27 (2006) | 356 | 39 | 74 | 131 | 143 | 314 | 410 | 458 | 735 | 1060 |
| 2026-04-08 21:30 | 4.97 | 90 | 1870 (1986) | 27 (2006) | 356 | 39 | 74 | 131 | 143 | 314 | 410 | 458 | 735 | 1060 |
| 2026-04-08 20:30 | 4.97 | 90 | 1870 (1986) | 27 (2006) | 356 | 39 | 74 | 131 | 143 | 314 | 410 | 458 | 735 | 1060 |
| 2026-04-08 19:30 | 4.98 | 91 | 1870 (1986) | 27 (2006) | 356 | 39 | 74 | 131 | 143 | 314 | 410 | 458 | 735 | 1060 |
| 2026-04-08 18:30 | 4.98 | 91 | 1870 (1986) | 27 (2006) | 356 | 39 | 74 | 131 | 143 | 314 | 410 | 458 | 735 | 1060 |
| 2026-04-08 17:30 | 5.00 | 95 | 1870 (1986) | 27 (2006) | 356 | 39 | 74 | 131 | 143 | 314 | 410 | 458 | 735 | 1060 |
| 2026-04-08 16:30 | 4.96 | 88 | 1870 (1986) | 27 (2006) | 356 | 39 | 74 | 131 | 143 | 314 | 410 | 458 | 735 | 1060 |
| 2026-04-08 15:30 | 4.99 | 93 | 1870 (1986) | 27 (2006) | 356 | 39 | 74 | 131 | 143 | 314 | 410 | 458 | 735 | 1060 |
| 2026-04-08 14:30 | 4.95 | 87 | 1870 (1986) | 27 (2006) | 356 | 39 | 74 | 131 | 143 | 314 | 410 | 458 | 735 | 1060 |
| 2026-04-08 13:30 | 4.99 | 93 | 1870 (1986) | 27 (2006) | 356 | 39 | 74 | 131 | 143 | 314 | 410 | 458 | 735 | 1060 |
| 2026-04-08 12:30 | 5.00 | 95 | 1870 (1986) | 27 (2006) | 356 | 39 | 74 | 131 | 143 | 314 | 410 | 458 | 735 | 1060 |
| 2026-04-08 11:30 | 4.99 | 93 | 1870 (1986) | 27 (2006) | 356 | 39 | 74 | 131 | 143 | 314 | 410 | 458 | 735 | 1060 |
| 2026-04-08 10:30 | 5.01 | 96 | 1870 (1986) | 27 (2006) | 356 | 39 | 74 | 131 | 143 | 314 | 410 | 458 | 735 | 1060 |
| 2026-04-08 09:30 | 4.99 | 93 | 1870 (1986) | 27 (2006) | 356 | 39 | 74 | 131 | 143 | 314 | 410 | 458 | 735 | 1060 |
| 2026-04-08 08:30 | 5.01 | 96 | 1870 (1986) | 27 (2006) | 356 | 39 | 74 | 131 | 143 | 314 | 410 | 458 | 735 | 1060 |
| 2026-04-08 07:30 | 4.99 | 93 | 1870 (1986) | 27 (2006) | 356 | 39 | 74 | 131 | 143 | 314 | 410 | 458 | 735 | 1060 |
| 2026-04-08 06:30 | 5.01 | 96 | 1870 (1986) | 27 (2006) | 356 | 39 | 74 | 131 | 143 | 314 | 410 | 458 | 735 | 1060 |
| 2026-04-08 05:30 | 4.99 | 93 | 1870 (1986) | 27 (2006) | 356 | 39 | 74 | 131 | 143 | 314 | 410 | 458 | 735 | 1060 |
| 2026-04-08 04:30 | 5.00 | 95 | 1870 (1986) | 27 (2006) | 356 | 39 | 74 | 131 | 143 | 314 | 410 | 458 | 735 | 1060 |
| 2026-04-08 03:30 | 4.99 | 93 | 1870 (1986) | 27 (2006) | 356 | 39 | 74 | 131 | 143 | 314 | 410 | 458 | 735 | 1060 |
| 2026-04-08 02:30 | 5.01 | 96 | 1870 (1986) | 27 (2006) | 356 | 39 | 74 | 131 | 143 | 314 | 410 | 458 | 735 | 1060 |
| 2026-04-08 01:30 | 5.00 | 95 | 1870 (1986) | 27 (2006) | 356 | 39 | 74 | 131 | 143 | 314 | 410 | 458 | 735 | 1060 |
| 2026-04-08 00:30 | 5.01 | 96 | 1870 (1986) | 27 (2006) | 356 | 39 | 74 | 131 | 143 | 314 | 410 | 458 | 735 | 1060 |
| 2026-04-07 23:30 | 5.01 | 96 | 1870 (1986) | 27 (2006) | 356 | 39 | 74 | 131 | 143 | 314 | 410 | 458 | 735 | 1060 |
| 2026-04-07 22:30 | 5.02 | 98 | 1350 (1985) | 29 (2006) | 347 | 39 | 76 | 134 | 149 | 331 | 424 | 448 | 694 | 876 |
| 2026-04-07 21:30 | 5.02 | 98 | 1350 (1985) | 29 (2006) | 347 | 39 | 76 | 134 | 149 | 331 | 424 | 448 | 694 | 876 |
| 2026-04-07 20:30 | 5.02 | 98 | 1350 (1985) | 29 (2006) | 347 | 39 | 76 | 134 | 149 | 331 | 424 | 448 | 694 | 876 |
| 2026-04-07 19:30 | 5.02 | 98 | 1350 (1985) | 29 (2006) | 347 | 39 | 76 | 134 | 149 | 331 | 424 | 448 | 694 | 876 |
| 2026-04-07 18:30 | 5.03 | 100 | 1350 (1985) | 29 (2006) | 347 | 39 | 76 | 134 | 149 | 331 | 424 | 448 | 694 | 876 |
| 2026-04-07 17:30 | 5.04 | 101 | 1350 (1985) | 29 (2006) | 347 | 39 | 76 | 134 | 149 | 331 | 424 | 448 | 694 | 876 |
| 2026-04-07 16:30 | 5.04 | 101 | 1350 (1985) | 29 (2006) | 347 | 39 | 76 | 134 | 149 | 331 | 424 | 448 | 694 | 876 |
| 2026-04-07 15:30 | 5.04 | 101 | 1350 (1985) | 29 (2006) | 347 | 39 | 76 | 134 | 149 | 331 | 424 | 448 | 694 | 876 |
| 2026-04-07 14:30 | 5.04 | 101 | 1350 (1985) | 29 (2006) | 347 | 39 | 76 | 134 | 149 | 331 | 424 | 448 | 694 | 876 |
| 2026-04-07 13:30 | 5.05 | 103 | 1350 (1985) | 29 (2006) | 347 | 39 | 76 | 134 | 149 | 331 | 424 | 448 | 694 | 876 |
| 2026-04-07 12:30 | 5.06 | 105 | 1350 (1985) | 29 (2006) | 347 | 39 | 76 | 134 | 149 | 331 | 424 | 448 | 694 | 876 |
| 2026-04-07 11:30 | 5.04 | 101 | 1350 (1985) | 29 (2006) | 347 | 39 | 76 | 134 | 149 | 331 | 424 | 448 | 694 | 876 |
| 2026-04-07 10:30 | 5.03 | 100 | 1350 (1985) | 29 (2006) | 347 | 39 | 76 | 134 | 149 | 331 | 424 | 448 | 694 | 876 |
| 2026-04-07 09:30 | 5.01 | 96 | 1350 (1985) | 29 (2006) | 347 | 39 | 76 | 134 | 149 | 331 | 424 | 448 | 694 | 876 |
| 2026-04-07 08:30 | 5.01 | 96 | 1350 (1985) | 29 (2006) | 347 | 39 | 76 | 134 | 149 | 331 | 424 | 448 | 694 | 876 |
| 2026-04-07 06:30 | 5.02 | 98 | 1350 (1985) | 29 (2006) | 347 | 39 | 76 | 134 | 149 | 331 | 424 | 448 | 694 | 876 |
| 2026-04-07 05:30 | 5.02 | 98 | 1350 (1985) | 29 (2006) | 347 | 39 | 76 | 134 | 149 | 331 | 424 | 448 | 694 | 876 |
| 2026-04-07 04:30 | 5.01 | 96 | 1350 (1985) | 29 (2006) | 347 | 39 | 76 | 134 | 149 | 331 | 424 | 448 | 694 | 876 |
| 2026-04-07 03:30 | 5.03 | 100 | 1350 (1985) | 29 (2006) | 347 | 39 | 76 | 134 | 149 | 331 | 424 | 448 | 694 | 876 |
| 2026-04-07 02:30 | 5.02 | 98 | 1350 (1985) | 29 (2006) | 347 | 39 | 76 | 134 | 149 | 331 | 424 | 448 | 694 | 876 |
| 2026-04-07 01:30 | 5.02 | 98 | 1350 (1985) | 29 (2006) | 347 | 39 | 76 | 134 | 149 | 331 | 424 | 448 | 694 | 876 |
| 2026-04-07 00:30 | 5.03 | 100 | 1350 (1985) | 29 (2006) | 347 | 39 | 76 | 134 | 149 | 331 | 424 | 448 | 694 | 876 |
| 2026-04-06 23:30 | 5.02 | 98 | 1350 (1985) | 29 (2006) | 347 | 39 | 76 | 134 | 149 | 331 | 424 | 448 | 694 | 876 |
| 2026-04-06 22:30 | 5.04 | 101 | 1790 (1985) | 28 (2006) | 376 | 40 | 77 | 138 | 158 | 329 | 447 | 488 | 788 | 919 |
| 2026-04-06 21:30 | 5.02 | 98 | 1790 (1985) | 28 (2006) | 376 | 40 | 77 | 138 | 158 | 329 | 447 | 488 | 788 | 919 |
| 2026-04-06 20:30 | 5.04 | 101 | 1790 (1985) | 28 (2006) | 376 | 40 | 77 | 138 | 158 | 329 | 447 | 488 | 788 | 919 |
| 2026-04-06 19:30 | 5.03 | 100 | 1790 (1985) | 28 (2006) | 376 | 40 | 77 | 138 | 158 | 329 | 447 | 488 | 788 | 919 |
| 2026-04-06 18:30 | 5.05 | 103 | 1790 (1985) | 28 (2006) | 376 | 40 | 77 | 138 | 158 | 329 | 447 | 488 | 788 | 919 |
| 2026-04-06 17:30 | 5.05 | 103 | 1790 (1985) | 28 (2006) | 376 | 40 | 77 | 138 | 158 | 329 | 447 | 488 | 788 | 919 |
| 2026-04-06 16:30 | 5.05 | 103 | 1790 (1985) | 28 (2006) | 376 | 40 | 77 | 138 | 158 | 329 | 447 | 488 | 788 | 919 |
| 2026-04-06 15:30 | 5.06 | 105 | 1790 (1985) | 28 (2006) | 376 | 40 | 77 | 138 | 158 | 329 | 447 | 488 | 788 | 919 |
| 2026-04-06 14:30 | 5.05 | 103 | 1790 (1985) | 28 (2006) | 376 | 40 | 77 | 138 | 158 | 329 | 447 | 488 | 788 | 919 |
| 2026-04-06 13:30 | 5.06 | 105 | 1790 (1985) | 28 (2006) | 376 | 40 | 77 | 138 | 158 | 329 | 447 | 488 | 788 | 919 |
| 2026-04-06 12:30 | 5.07 | 106 | 1790 (1985) | 28 (2006) | 376 | 40 | 77 | 138 | 158 | 329 | 447 | 488 | 788 | 919 |
| 2026-04-06 11:30 | 5.07 | 106 | 1790 (1985) | 28 (2006) | 376 | 40 | 77 | 138 | 158 | 329 | 447 | 488 | 788 | 919 |
| 2026-04-06 10:30 | 5.07 | 106 | 1790 (1985) | 28 (2006) | 376 | 40 | 77 | 138 | 158 | 329 | 447 | 488 | 788 | 919 |
| 2026-04-06 09:30 | 5.07 | 106 | 1790 (1985) | 28 (2006) | 376 | 40 | 77 | 138 | 158 | 329 | 447 | 488 | 788 | 919 |
| 2026-04-06 08:30 | 5.08 | 108 | 1790 (1985) | 28 (2006) | 376 | 40 | 77 | 138 | 158 | 329 | 447 | 488 | 788 | 919 |
| 2026-04-06 07:30 | 5.07 | 106 | 1790 (1985) | 28 (2006) | 376 | 40 | 77 | 138 | 158 | 329 | 447 | 488 | 788 | 919 |
| 2026-04-06 06:30 | 5.08 | 108 | 1790 (1985) | 28 (2006) | 376 | 40 | 77 | 138 | 158 | 329 | 447 | 488 | 788 | 919 |
| 2026-04-06 05:30 | 5.09 | 110 | 1790 (1985) | 28 (2006) | 376 | 40 | 77 | 138 | 158 | 329 | 447 | 488 | 788 | 919 |
| 2026-04-06 04:30 | 5.09 | 110 | 1790 (1985) | 28 (2006) | 376 | 40 | 77 | 138 | 158 | 329 | 447 | 488 | 788 | 919 |
| 2026-04-06 03:30 | 5.09 | 110 | 1790 (1985) | 28 (2006) | 376 | 40 | 77 | 138 | 158 | 329 | 447 | 488 | 788 | 919 |
| 2026-04-06 02:30 | 5.09 | 110 | 1790 (1985) | 28 (2006) | 376 | 40 | 77 | 138 | 158 | 329 | 447 | 488 | 788 | 919 |
| 2026-04-06 01:30 | 5.10 | 112 | 1790 (1985) | 28 (2006) | 376 | 40 | 77 | 138 | 158 | 329 | 447 | 488 | 788 | 919 |
| 2026-04-06 00:30 | 5.10 | 112 | 1790 (1985) | 28 (2006) | 376 | 40 | 77 | 138 | 158 | 329 | 447 | 488 | 788 | 919 |
| 2026-04-05 23:30 | 5.11 | 113 | 1790 (1985) | 28 (2006) | 376 | 40 | 77 | 138 | 158 | 329 | 447 | 488 | 788 | 919 |
| 2026-04-05 22:30 | 5.11 | 113 | 3330 (1985) | 27 (2006) | 439 | 42 | 81 | 144 | 167 | 326 | 475 | 519 | 935 | 1110 |
| 2026-04-05 21:30 | 5.11 | 113 | 3330 (1985) | 27 (2006) | 439 | 42 | 81 | 144 | 167 | 326 | 475 | 519 | 935 | 1110 |
| 2026-04-05 20:30 | 5.11 | 113 | 3330 (1985) | 27 (2006) | 439 | 42 | 81 | 144 | 167 | 326 | 475 | 519 | 935 | 1110 |
| 2026-04-05 19:30 | 5.12 | 115 | 3330 (1985) | 27 (2006) | 439 | 42 | 81 | 144 | 167 | 326 | 475 | 519 | 935 | 1110 |
| 2026-04-05 18:30 | 5.13 | 117 | 3330 (1985) | 27 (2006) | 439 | 42 | 81 | 144 | 167 | 326 | 475 | 519 | 935 | 1110 |
| 2026-04-05 17:30 | 5.13 | 117 | 3330 (1985) | 27 (2006) | 439 | 42 | 81 | 144 | 167 | 326 | 475 | 519 | 935 | 1110 |
| 2026-04-05 16:30 | 5.12 | 115 | 3330 (1985) | 27 (2006) | 439 | 42 | 81 | 144 | 167 | 326 | 475 | 519 | 935 | 1110 |
| 2026-04-05 15:30 | 5.14 | 119 | 3330 (1985) | 27 (2006) | 439 | 42 | 81 | 144 | 167 | 326 | 475 | 519 | 935 | 1110 |
| 2026-04-05 14:30 | 5.13 | 117 | 3330 (1985) | 27 (2006) | 439 | 42 | 81 | 144 | 167 | 326 | 475 | 519 | 935 | 1110 |
| 2026-04-05 13:30 | 5.15 | 121 | 3330 (1985) | 27 (2006) | 439 | 42 | 81 | 144 | 167 | 326 | 475 | 519 | 935 | 1110 |
| 2026-04-05 12:30 | 5.16 | 123 | 3330 (1985) | 27 (2006) | 439 | 42 | 81 | 144 | 167 | 326 | 475 | 519 | 935 | 1110 |
| 2026-04-05 11:30 | 5.14 | 119 | 3330 (1985) | 27 (2006) | 439 | 42 | 81 | 144 | 167 | 326 | 475 | 519 | 935 | 1110 |
| 2026-04-05 10:30 | 5.15 | 121 | 3330 (1985) | 27 (2006) | 439 | 42 | 81 | 144 | 167 | 326 | 475 | 519 | 935 | 1110 |
| 2026-04-05 09:30 | 5.19 | 129 | 3330 (1985) | 27 (2006) | 439 | 42 | 81 | 144 | 167 | 326 | 475 | 519 | 935 | 1110 |
| 2026-04-05 08:30 | 5.19 | 129 | 3330 (1985) | 27 (2006) | 439 | 42 | 81 | 144 | 167 | 326 | 475 | 519 | 935 | 1110 |
| 2026-04-05 07:30 | 5.19 | 129 | 3330 (1985) | 27 (2006) | 439 | 42 | 81 | 144 | 167 | 326 | 475 | 519 | 935 | 1110 |
| 2026-04-05 06:30 | 5.21 | 133 | 3330 (1985) | 27 (2006) | 439 | 42 | 81 | 144 | 167 | 326 | 475 | 519 | 935 | 1110 |
| 2026-04-05 05:30 | 5.20 | 131 | 3330 (1985) | 27 (2006) | 439 | 42 | 81 | 144 | 167 | 326 | 475 | 519 | 935 | 1110 |
| 2026-04-05 04:30 | 5.21 | 133 | 3330 (1985) | 27 (2006) | 439 | 42 | 81 | 144 | 167 | 326 | 475 | 519 | 935 | 1110 |
| 2026-04-05 03:30 | 5.23 | 137 | 3330 (1985) | 27 (2006) | 439 | 42 | 81 | 144 | 167 | 326 | 475 | 519 | 935 | 1110 |
| 2026-04-05 02:30 | 5.22 | 135 | 3330 (1985) | 27 (2006) | 439 | 42 | 81 | 144 | 167 | 326 | 475 | 519 | 935 | 1110 |
| 2026-04-05 01:30 | 5.21 | 133 | 3330 (1985) | 27 (2006) | 439 | 42 | 81 | 144 | 167 | 326 | 475 | 519 | 935 | 1110 |
| 2026-04-05 00:30 | 5.21 | 133 | 3330 (1985) | 27 (2006) | 439 | 42 | 81 | 144 | 167 | 326 | 475 | 519 | 935 | 1110 |
| 2026-04-04 23:30 | 5.16 | 123 | 3330 (1985) | 27 (2006) | 439 | 42 | 81 | 144 | 167 | 326 | 475 | 519 | 935 | 1110 |
A total of 742 rows are displayed for years 1966 through 2025.